logo
Games tagged Racing
# Game Release date
Price
Score rank
(Userscore / Metascore)
Owners
Players
Playtime (Median)
Developer(s)
Publisher(s)
1 Make Way Dec 4, 2023 $14.99N/A (N/A/83%)0 .. 20,0000%00:00 (00:00)Ice BEAMSecret Mode
2 Circuit Superstars Oct 31, 2023 $19.99N/A (N/A/82%)200,000 .. 500,0000%00:00 (00:00)Original Fire GamesOriginal Fire Games
3 Star Drift Evolution Aug 27, 2021 $14.99N/A (N/A/82%)20,000 .. 50,0000%00:00 (00:00)CatzeCatze
4 F1 23 Jun 15, 2023 $69.99N/A (N/A/81%)500,000 .. 1,000,00040%06:17 (05:58)CodemastersElectronic Arts
5 F1 22 Jul 1, 2022 N/AN/A (N/A/81%)500,000 .. 1,000,0005.41%00:52 (00:34)CodemastersElectronic Arts
6 EA SPORTS WRC Nov 2, 2023 $49.99N/A (N/A/80%)100,000 .. 200,00042.86%04:14 (06:03)CodemastersElectronic Arts
7 F1 Manager 2023 Jul 31, 2023 $54.99N/A (N/A/79%)50,000 .. 100,00014.29%00:13 (00:06)Frontier DevelopmentsFrontier Developments
8 F1 Manager 2022 Aug 30, 2022 $54.99N/A (N/A/79%)200,000 .. 500,0004.35%00:31 (00:10)Frontier DevelopmentsFrontier Developments
9 Off-Road: Redneck Racing Feb 12, 2024 $7.99N/A (N/A/65%)0 .. 20,0000%00:00 (00:00)Rage Software, Jordan Freeman GroupFunbox Media Ltd, ZOOM Platform Media
10 Ashland:Explore Dec 6, 2023 FreeN/A (N/A)200,000 .. 500,0000%00:00 (00:00)无人之境无人之境
11 TOSS! Sep 7, 2023 $19.99N/A (N/A)20,000 .. 50,0000%00:00 (00:00)Agera GamesVertigo Games
12 KartRider: Drift Jan 9, 2023 FreeN/A (N/A)1,000,000 .. 2,000,0002.02%00:31 (00:20)Nexon Korea CorporationNexon America Inc.
13 Dungeon Swappers Jul 22, 2022 FreeN/A (N/A)0 .. 20,0000%00:00 (00:00)Levi VanZandtLevi VanZandt
14 pemsa Apr 13, 2022 FreeN/A (N/A)50,000 .. 100,0000%00:00 (00:00)Rexcellent GamesRexcellent Games
15 Capsa Feb 3, 2022 FreeN/A (N/A)0 .. 20,0000%00:00 (00:00)db.works, VetronVetron
16 Swing Dunk Sep 15, 2021 FreeN/A (N/A)100,000 .. 200,0000%00:00 (00:00)Bucketplay Inc.Bucketplay Inc.
17 Car Crush Racing Simulator Apr 8, 2024 $0.99N/A (N/A)0 .. 20,0000%00:00 (00:00)Enaayah Software Development and Services Private LimitedEnaayah Software Development and Services Private Limited
18 Fire Race Mar 1, 2024 $3.49N/A (N/A)0 .. 20,0000%00:00 (00:00)Manodeix, HymooriManodeix
19 LOLI RACING Feb 28, 2024 $1.79N/A (N/A)0 .. 20,0000%00:00 (00:00)戴永翔(Dai Yong Xiang)alex94i60
20 BotMobile Feb 24, 2024 $5.99N/A (N/A)0 .. 20,0000%00:00 (00:00)GamesforgamesGamesforgames
21 RUNR END Feb 24, 2024 $6.99N/A (N/A)0 .. 20,0000%00:00 (00:00)Attila I. H.Attila I. H.
22 CRASH MATH Feb 22, 2024 $0.69N/A (N/A)0 .. 20,0000%00:00 (00:00)Archor Wright, HOGuru Games!Archor Games, HOGuru Games!
23 Squirrel Day Feb 20, 2024 $14.99N/A (N/A)0 .. 20,0000%00:00 (00:00)Granite Top GamesGranite Top Games
24 Le Mans Ultimate Feb 20, 2024 $32.99N/A (N/A)50,000 .. 100,000100%17:57 (26:27)Studio 397Studio 397
25 Kinetic: Break All Limits Feb 20, 2024 $19.99N/A (N/A)0 .. 20,0000%00:00 (00:00)Break All Limits LLCNONE
26 Gran Carismo Feb 19, 2024 $3.99N/A (N/A)0 .. 20,0000%00:00 (00:00)SP GAMESSP GAMES
27 Xeno Runners Feb 19, 2024 $5.73N/A (N/A)50,000 .. 100,0000%00:00 (00:00)Atchio GamesAtchio Games
28 Dogs Club Feb 19, 2024 $3.99N/A (N/A)0 .. 20,0000%00:00 (00:00)Montee GamesMontee Games
29 golden road Feb 16, 2024 $0.99N/A (N/A)0 .. 20,0000%00:00 (00:00)wenzongwenzong
30 RC Revolution Feb 16, 2024 $14.99N/A (N/A)0 .. 20,0000%00:00 (00:00)Phren GamesPhren Games
31 Neon Tail Feb 16, 2024 FreeN/A (N/A)0 .. 20,0000%00:00 (00:00)Fei, Leo, YangRocket Juice Games
32 Nash Racing: Battle Feb 15, 2024 $1.99N/A (N/A)0 .. 20,0000%00:00 (00:00)Tero Lunkka, Valkeala SoftwareValkeala Software
33 sterospeed Feb 15, 2024 $5.99N/A (N/A)0 .. 20,0000%00:00 (00:00)blainblain
34 Lowrider Hopping Feb 15, 2024 $2.99N/A (N/A)0 .. 20,0000%00:00 (00:00)Indie ThugIndie Thug
35 Galactic Gauntlet: The Ultimate Interstellar Challenge Feb 14, 2024 $2.99N/A (N/A)0 .. 20,0000%00:00 (00:00)Dads In Dungeons StudiosDads In Dungeons Studios
36 Tether Feb 14, 2024 $4.99N/A (N/A)0 .. 20,0000%00:00 (00:00)Logan WangWhaleshark Noises
37 Dynamic Shooting VR Feb 14, 2024 $9.99N/A (N/A)0 .. 20,0000%00:00 (00:00)Polyfun GamesPolyfun Games
38 Autobus Park Sim Feb 12, 2024 $39.99N/A (N/A)0 .. 20,0000%00:00 (00:00)Atomic GamesAtomic Games
39 Horror Drift (ホラードリフト) Feb 12, 2024 $4.99N/A (N/A)0 .. 20,0000%00:00 (00:00)Kurayami Yume GamesKurayami Yume Games
40 Farm Racing Feb 11, 2024 $39.99N/A (N/A)0 .. 20,0000%00:00 (00:00)HardiHardi
41 ULTRATORO Feb 9, 2024 $5.99N/A (N/A)0 .. 20,0000%00:00 (00:00)RETSA GAMESRETSA GAMES
42 OFFROAD MotorBike VR Feb 8, 2024 $7.99N/A (N/A)0 .. 20,0000%00:00 (00:00)İNİTİUM STUDİOİNİTİUM STUDİO
43 Boldly Forward Feb 7, 2024 $3.99N/A (N/A)0 .. 20,0000%00:00 (00:00)SmallMillSmallMill
44 Mini Sports Feb 7, 2024 $2.99N/A (N/A)0 .. 20,0000%00:00 (00:00)BLOK GamesBLOK Games
45 Black stone Feb 2, 2024 $6.99N/A (N/A)0 .. 20,0000%00:00 (00:00)King of the TimesKing of the Times
46 Drop Racing Feb 1, 2024 $7.99N/A (N/A)0 .. 20,0000%00:00 (00:00)Freakiest ShowFreakiest Show
47 Run and Retry Feb 1, 2024 $9.99N/A (N/A)0 .. 20,0000%00:00 (00:00)Little Crows StudioLittle Crows Studio
48 Final Apex Jan 31, 2024 $4.99N/A (N/A)0 .. 20,0000%00:00 (00:00)Hyper IterationHyper Iteration
49 BMX Gravel Jan 31, 2024 $0.99N/A (N/A)0 .. 20,0000%00:00 (00:00)Imaginings SoftwareImaginings Software
50 Moto Rally Racing VR Jan 31, 2024 $2.99N/A (N/A)0 .. 20,0000%00:00 (00:00)Sakura Game StudioSakura Game Studio
51 Speed Crew Jan 31, 2024 $19.99N/A (N/A)0 .. 20,0000%00:00 (00:00)Wild FieldsWild Fields
52 Hex Racer Jan 30, 2024 $4.99N/A (N/A)0 .. 20,0000%00:00 (00:00)Lakea GamesLakea Games
53 LEAD - Rally Jan 30, 2024 $9.99N/A (N/A)0 .. 20,0000%00:00 (00:00)TertusTertus
54 CelV Run Jan 25, 2024 $7.99N/A (N/A)0 .. 20,0000%00:00 (00:00)Triniti Game StudioTriniti Game Studio
55 CubeCubeRubik Jan 25, 2024 $3.99N/A (N/A)0 .. 20,0000%00:00 (00:00)iceblue Studioiceblue Studio
56 AaaaaAAaaaAAAaaAAAAaAAAAA!!! Remastered Jan 25, 2024 $9.99N/A (N/A)0 .. 20,0000%00:00 (00:00)Dejobaan Games, Petricore, Inc.Dejobaan Games, SMG Studio
57 Escape The Aquarium Jan 24, 2024 $4.99N/A (N/A)0 .. 20,0000%00:00 (00:00)三月精的旧树屋三月精的旧树屋
58 Fractal Glide Jan 24, 2024 $3.99N/A (N/A)100,000 .. 200,0000%00:00 (00:00)Nabil MansourNabil Mansour
59 Disaster Golf Jan 22, 2024 $1.99N/A (N/A)0 .. 20,0000%00:00 (00:00)Hippo HavocVoxPop Games, Inc.
60 Kitten Burst Jan 20, 2024 $24.99N/A (N/A)0 .. 20,0000%00:00 (00:00)LithodelphisLithodelphis
61 ROAD Jan 18, 2024 $0.99N/A (N/A)0 .. 20,0000%00:00 (00:00)Archor WrightArchor Games
62 Animal Race Party Jan 18, 2024 $1.99N/A (N/A)0 .. 20,0000%00:00 (00:00)Black Rabbit GamesBlack Rabbit Games
63 Fling to the Finish Jan 18, 2024 $19.99N/A (N/A)50,000 .. 100,0000%00:00 (00:00)SplitSide GamesDaedalic Entertainment
64 Chalo Chalo Jan 18, 2024 $4.99N/A (N/A)0 .. 20,0000%00:00 (00:00)Redshift Media, Richard BoeserRedshift Media, Richard Boeser
65 Starlight Scouts Jan 16, 2024 $5.99N/A (N/A)20,000 .. 50,0000%00:00 (00:00)Jobi's Adventure Development ClubJobi's Adventure Development
66 DDI Rally Championship Jan 13, 2024 $11.99N/A (N/A)0 .. 20,0000%00:00 (00:00)Dangerous Derk InteractiveDangerous Derk Interactive
67 ring of the devil Jan 11, 2024 $10.99N/A (N/A)0 .. 20,0000%00:00 (00:00)ring of the devilring of the devil
68 LASERS Jan 11, 2024 $2.99N/A (N/A)0 .. 20,0004.62%00:26 (00:15)Straight Back GamesStraight Back Games
69 Trash Top Down Racing Jan 10, 2024 $0.49N/A (N/A)0 .. 20,0000%00:00 (00:00)Mixtor, Tero LunkkaTero Lunkka
70 PolyZen Drive Jan 6, 2024 $4.99N/A (N/A)0 .. 20,0000%00:00 (00:00)VitaminsizDevVitaminsizDev
71 You Are A Pilot Jan 6, 2024 $1.99N/A (N/A)0 .. 20,0000%00:00 (00:00)GUNTER GAMESGUNTER GAMES
72 BIKE RIDE 3D Jan 5, 2024 $3.99N/A (N/A)0 .. 20,0000%00:00 (00:00)https://playducky.com/https://playducky.com/
73 Skyline Sprinters Jan 5, 2024 $19.99N/A (N/A)20,000 .. 50,0000%00:00 (00:00)Sharpgamers4youCrime Engine Games
74 Delivery Impossible Jan 5, 2024 $14.99N/A (N/A)0 .. 20,0000%00:00 (00:00)Drunk Fly OyDrunk Fly Oy
75 Micro Machines: Mini Challenge Mayhem Jan 4, 2024 $14.99N/A (N/A)0 .. 20,0000%00:00 (00:00)WIMO GamesWIMO Games
76 Drive Me to Hell Jan 4, 2024 $1.99N/A (N/A)0 .. 20,0000%00:00 (00:00)Max RohrbergMax Rohrberg
77 Driving Home(icide) Jan 3, 2024 $2.99N/A (N/A)0 .. 20,0000%00:00 (00:00)Chimera Coast GamesChimera Coast Games
78 runner Jan 3, 2024 $3.99N/A (N/A)0 .. 20,0000%00:00 (00:00)武汉亿鼎依本科技工作室武汉亿鼎依本科技工作室
79 Twin Stick Dec 30, 2023 $0.99N/A (N/A)0 .. 20,0000%00:00 (00:00)Utmost GamesUtmost Games
80 Adopted Passion Realize Your Dream Dec 28, 2023 $19.99N/A (N/A)0 .. 20,0000%00:00 (00:00)fabolous_luxfabolous_lux
81 Barely Racing Dec 28, 2023 $8.99N/A (N/A)0 .. 20,0000%00:00 (00:00)Fragile SoftwareFragile Software
82 Dude Simulator Six Dec 22, 2023 $4.99N/A (N/A)0 .. 20,0000%00:00 (00:00)KiddyKiddy
83 Tiny Car Mess Dec 22, 2023 $4.99N/A (N/A)0 .. 20,0000%00:00 (00:00)acrillydevacrillydev
84 Super Cube 3D Dec 22, 2023 $2.99N/A (N/A)0 .. 20,0000%00:00 (00:00)Streetware GamesStreetware Games
85 TAXI TAXI TAXI Dec 20, 2023 $2N/A (N/A)0 .. 20,0000%00:00 (00:00)BrandtnerBrandtner
86 Rallyallyally Dec 20, 2023 $7.99N/A (N/A)0 .. 20,0000%00:00 (00:00)Hairy Heart GamesTheGamePublisher
87 Up N' Down Dec 19, 2023 $3.99N/A (N/A)0 .. 20,0000%00:00 (00:00)CashcowGamesCashcowGames
88 Wild River Run Dec 19, 2023 $14.99N/A (N/A)0 .. 20,0000%00:00 (00:00)_Elixer_Elixer
89 Triadino Dec 19, 2023 $1.99N/A (N/A)0 .. 20,0000%00:00 (00:00)NeoVoxel StudioNeoVoxel Studio
90 OFFROAD VR Dec 16, 2023 $7.99N/A (N/A)0 .. 20,0000%00:00 (00:00)İNİTİUM STUDİOİNİTİUM STUDİO
91 Hot Hatch Adventure Dec 16, 2023 $0.99N/A (N/A)0 .. 20,0000%00:00 (00:00)FlashboyFlashboy
92 Speed Night Dec 15, 2023 $4.99N/A (N/A)0 .. 20,0000%00:00 (00:00)Speed PlayerSpeed Player
93 Bwudaling: Da Fight for da Bwudahood Dec 15, 2023 $0.99N/A (N/A)50,000 .. 100,0000%00:00 (00:00)Adam GallinaGallinaGames
94 Magnet Mania 3D Dec 15, 2023 $16.99N/A (N/A)0 .. 20,0000%00:00 (00:00)3D-AW3D-AW
95 Mechanic Heroes Dec 15, 2023 $13.99N/A (N/A)0 .. 20,0000%00:00 (00:00)Late Game StudiosLate Game Studios
96 CRASH TEST IDIOTS 2 (MULTIPLAYER) Dec 14, 2023 $0.99N/A (N/A)0 .. 20,0000%00:00 (00:00)Archor WrightArchor Games
97 ImpossiBowl Dec 14, 2023 FreeN/A (N/A)0 .. 20,0000%00:00 (00:00)Ducktopus GamesDucktopus Games
98 Snowboard League Dec 14, 2023 $5.99N/A (N/A)0 .. 20,0000%00:00 (00:00)SirDiaboDigital Arson
99 I'm the Policeman Dec 13, 2023 $39.99N/A (N/A)0 .. 20,0000%00:00 (00:00)Atomic
100 Quantum Drive Dec 12, 2023 $2.39N/A (N/A)0 .. 20,0000%00:00 (00:00)José MinelliMinelli
101 Hellbound Ropes Dec 11, 2023 $2.99N/A (N/A)0 .. 20,0000%00:00 (00:00)Blail GamesBlail Games
102 Highway Cleaners Dec 11, 2023 $2.99N/A (N/A)0 .. 20,0000%00:00 (00:00)HasanKlnccHasanKlncc
103 Pogo3D Dec 11, 2023 $7.99N/A (N/A)0 .. 20,0000%00:00 (00:00)HEDGEWIZARDSHEDGEWIZARDS
104 Knight Speed Dec 8, 2023 $2.99N/A (N/A)0 .. 20,0000%00:00 (00:00)OverrideOverride
105 Chiki-Chiki Dec 8, 2023 $6.99N/A (N/A)0 .. 20,0000%00:00 (00:00)SaltitudeSaltitude
106 Skyline Sprint: Turbo Tracks Dec 7, 2023 $4.99N/A (N/A)0 .. 20,0000%00:00 (00:00)3DI LLC3DI LLC
107 Gridmaster Dec 7, 2023 $4.99N/A (N/A)0 .. 20,0000%00:00 (00:00)GeamGamesGeamGames
108 Infinity Sky Dec 7, 2023 $3.99N/A (N/A)0 .. 20,0000%00:00 (00:00)3DI LLC3DI LLC
109 Diamond Dash: Plaid Peril Dec 7, 2023 $3.99N/A (N/A)0 .. 20,0000%00:00 (00:00)3DI LLC3DI LLC
110 Polyturbo Drift Racing Simulator Dec 6, 2023 $4.99N/A (N/A)0 .. 20,0000%00:00 (00:00)CHETRUSCA SOFTWORKS SRLCHETRUSCA SOFTWORKS SRL
111 Sees Game Dec 6, 2023 $4.99N/A (N/A)0 .. 20,0000%00:00 (00:00)KovaldevlogRodricoro, Kovaldevlog
112 Christmas Rocket Pudding Dec 5, 2023 $1.99N/A (N/A)0 .. 20,0000%00:00 (00:00)Chris BoyfieldChris Boyfield
113 Sledders Dec 5, 2023 $24.99N/A (N/A)20,000 .. 50,00050%03:33 (01:46)Hanki GamesBonus Stage Publishing
114 Synthwave Runner Dec 4, 2023 $0.99N/A (N/A)0 .. 20,0000%00:00 (00:00)Schwan OGSchwan OG
115 A Chocolate World Dec 4, 2023 $2.99N/A (N/A)0 .. 20,0000%00:00 (00:00)gregorio lanannagregorio lananna
116 Creative Continents Dec 2, 2023 $19.99N/A (N/A)0 .. 20,0000%00:00 (00:00)Oranje 44Oranje44
117 EPIC PIZZA Dec 1, 2023 $0.99N/A (N/A)0 .. 20,0000%00:00 (00:00)Archor WrightArchor Games
118 Racing the Gods - Beyond Horizons Dec 1, 2023 $19.99N/A (N/A)0 .. 20,0000%00:00 (00:00)EpiXR Games UGEpiXR Games UG
119 Yeah Wow Hey Nov 30, 2023 $5.99N/A (N/A)0 .. 20,0000%00:00 (00:00)Electric Maverick GameElectric Maverick Game
120 Play minigames with Reiko Nov 30, 2023 $4.99N/A (N/A)0 .. 20,0000%00:00 (00:00)Enroque TorresEnroque Torres
121 Crashy Laps Nov 30, 2023 $6.99N/A (N/A)0 .. 20,0000%00:00 (00:00)CheapeeSoft GamesJanduSoft
122 Lose Ctrl Nov 30, 2023 $12.99N/A (N/A)0 .. 20,0000%00:00 (00:00)Play From Your Heart Ug (haftungsbeschränkt)Play From Your Heart Ug (haftungsbeschränkt)
123 Velocity Ventures Nov 29, 2023 $3.99N/A (N/A)0 .. 20,0000%00:00 (00:00)Codac GamesCodac Games
124 Flat Spot Nov 29, 2023 $9.99N/A (N/A)0 .. 20,0000%00:00 (00:00)Marciman Game CreationsMarciman Game Creations
125 Will You Wheel? Nov 29, 2023 $9.99N/A (N/A)0 .. 20,0000%00:00 (00:00)Noon GamesNoon Games
126 IN TRUCK DRIVING Nov 28, 2023 $4.99N/A (N/A)0 .. 20,0000%00:00 (00:00)PlasmaIT SolutionsPlasmaIT Solutions
127 Max Twist Nov 24, 2023 $9.99N/A (N/A)0 .. 20,0000%00:00 (00:00)Black Sun Games Inc.Black Sun Games Inc.
128 6N23 Nov 23, 2023 $0.99N/A (N/A)0 .. 20,0000%00:00 (00:00)MurtabongjoGiLLZO
129 CTRL+ALT+REPEAT Nov 17, 2023 $4.99N/A (N/A)0 .. 20,0000%00:00 (00:00)RDST Games LLCRDST Games LLC
130 Astral Tracks Nov 16, 2023 $9.99N/A (N/A)0 .. 20,0000%00:00 (00:00)LAB132LAB132
131 Offroad: Dead Planet Nov 16, 2023 $19.99N/A (N/A)0 .. 20,0000%00:00 (00:00)Rune TurtleRune Turtle
132 Car Parking Real Driving Sim Nov 15, 2023 $0.59N/A (N/A)20,000 .. 50,0000%00:00 (00:00)Yusuf Islam Seyhan, Samet AcarInspector Studios
133 Death Roads: Tournament Nov 15, 2023 $14.99N/A (N/A)0 .. 20,0000%00:00 (00:00)The Knights of UnityThe Knights of Unity, Surefire.Games
134 Park Up - Car Nov 14, 2023 $6.99N/A (N/A)0 .. 20,0000%00:00 (00:00)Dimension 42Dimension 42
135 Estate Agent Simulator Nov 13, 2023 $15.99N/A (N/A)0 .. 20,0000%00:00 (00:00)Kiki GamesKiki Games
136 Robo Rush Nov 10, 2023 $0.99N/A (N/A)0 .. 20,0000%00:00 (00:00)Ethan DemarestEthan Demarest
137 Super Woden GP 2 Nov 10, 2023 $12.99N/A (N/A)50,000 .. 100,0000%00:00 (00:00)ViJuDaViJuDa
138 Eastern Europe Train Sim 2 Nov 9, 2023 $10.99N/A (N/A)0 .. 20,0000%00:00 (00:00)AtomicAtomic
139 Squeebing Up the Tower of Friendship Nov 9, 2023 $6.99N/A (N/A)0 .. 20,0000%00:00 (00:00)Space Kraken StudiosSpace Kraken Studios
140 Money Transporter Nov 8, 2023 $19.99N/A (N/A)0 .. 20,0000%00:00 (00:00)AtomicAtomic
141 Hydrofoil Generation Nov 7, 2023 $19.99N/A (N/A)0 .. 20,0000%00:00 (00:00)Jaxx Vane StudioHOOK
142 Elfboarders Nov 6, 2023 $10.99N/A (N/A)0 .. 20,0000%00:00 (00:00)Lylek GamesLylek Games
143 Pocket Race: Driver Nov 3, 2023 $3.99N/A (N/A)0 .. 20,0000%00:00 (00:00)Eric Behme, Oliver MüllerNone
144 Ring Racer Nov 3, 2023 $4.99N/A (N/A)0 .. 20,0000%00:00 (00:00)noowandanoowanda
145 DreamWorks All-Star Kart Racing Nov 3, 2023 $39.99N/A (N/A)0 .. 20,0000%00:00 (00:00)Bamtang GamesGameMill Entertainment
146 Tuk Tuk Taxi Nov 2, 2023 $24.99N/A (N/A)0 .. 20,0000%00:00 (00:00)AFabrikAFabrik
147 Drive Up Nov 2, 2023 $4.99N/A (N/A)0 .. 20,0000%00:00 (00:00)AstrasoftAstrasoft
148 SWORDCAR Nov 2, 2023 $1.24N/A (N/A)0 .. 20,0000%00:00 (00:00)SpaceMicroscope StudiosRogue Labs
149 Vice City Race Nov 1, 2023 $8.99N/A (N/A)0 .. 20,0000%00:00 (00:00)AFabrikAFabrik
150 Bemis Wamilton Racing Nov 1, 2023 $4.99N/A (N/A)0 .. 20,0000%00:00 (00:00)Valkeala Software, VS RevolutionValkeala Software
151 Perfect Landing Nov 1, 2023 $4.99N/A (N/A)0 .. 20,0000%00:00 (00:00)SLMStudioSLMStudio
152 FPVSIM Drone Simulator Oct 27, 2023 $12.99N/A (N/A)0 .. 20,0000%00:00 (00:00)fpvsim.comfpvsim.com
153 The Westcoast Drive : Lowrider Simulator Oct 26, 2023 $4.99N/A (N/A)0 .. 20,0000%00:00 (00:00)BlackPanzerYZBlackPanzerYZ
154 Flight 666 Oct 26, 2023 $4.99N/A (N/A)0 .. 20,0000%00:00 (00:00)Shawn KilianShawn Kilian
155 Furious Farm: Total Reap-Out Oct 26, 2023 $5.99N/A (N/A)0 .. 20,0000%00:00 (00:00)PUNKCAKE DelicieuxPUNKCAKE Delicieux
156 Junkyard Fury Breakout Oct 26, 2023 $9.99N/A (N/A)0 .. 20,0000%00:00 (00:00)Dhood GamingDhood Gaming
157 VISCO Collection Oct 26, 2023 $19.99N/A (N/A)0 .. 20,0000%00:00 (00:00)QUByte InteractiveQUByte Interactive, PixelHeart
158 Open Wheel Manager 2 Oct 25, 2023 $16.99N/A (N/A)0 .. 20,0000%00:00 (00:00)Paprikash GamesMicroProse Software
159 Drift Survivor Oct 20, 2023 $1.99N/A (N/A)20,000 .. 50,0000%00:00 (00:00)MEWSTURBOMEWSTURBO
160 XBattleCarsPVP Oct 20, 2023 FreeN/A (N/A)0 .. 20,0000%00:00 (00:00)xkatruzxkatruz
161 Run Tank Run Oct 20, 2023 $2.99N/A (N/A)0 .. 20,0000%00:00 (00:00)樂磚Joy Brick樂磚Joy Brick
162 Forest Offroad Driving Simulator Oct 19, 2023 $0.99N/A (N/A)0 .. 20,0000%00:00 (00:00)Yusuf Islam Seyhan, Samet AcarInspector Studios
163 Unispies - Chapter 1 Havana Cuba Oct 19, 2023 $4.99N/A (N/A)0 .. 20,0000%00:00 (00:00)Dave Del CastilloUnico Comics by Dave Del Castillo
164 Road Rampage Oct 19, 2023 $5.99N/A (N/A)0 .. 20,0000%00:00 (00:00)BazareBazare
165 HOT WHEELS UNLEASHED 2 - Turbocharged Oct 19, 2023 $49.99N/A (N/A)0 .. 20,0000%00:00 (00:00)Milestone S.r.l.Milestone S.r.l.
166 Chaos on Wheels Oct 19, 2023 $14.99N/A (N/A)0 .. 20,0000%00:00 (00:00)Acodeon d.o.o.Acodeon Gaming LLC
167 Ridevery Oct 18, 2023 $29.99N/A (N/A)0 .. 20,0000%00:00 (00:00)Kvass Da ValenkiKvass Da Valenki
168 Alaskan Road Truckers Oct 18, 2023 $21.99N/A (N/A)50,000 .. 100,0000%00:00 (00:00)Road Studio S.A.Green Man Gaming Publishing, Movie Games S.A.
169 Kart Life Oct 16, 2023 $4.99N/A (N/A)0 .. 20,0000%00:00 (00:00)Genie GamingGenie Gaming
170 Balloons Oct 16, 2023 $4.99N/A (N/A)0 .. 20,0000%00:00 (00:00)FatCokeFatCoke
171 Hidden World War II Top-Down 3D Oct 15, 2023 $119.99N/A (N/A)0 .. 20,0000%00:00 (00:00)Top-Down GamesHede
172 Hidden Space Top-Down 3D Oct 15, 2023 $119.99N/A (N/A)0 .. 20,0000%00:00 (00:00)Top-Down GamesHede
173 Flock Party Oct 15, 2023 $7.99N/A (N/A)0 .. 20,0000%00:00 (00:00)Divine ImageDivine Image
174 Planet Surfer Oct 13, 2023 $2.99N/A (N/A)0 .. 20,0000%00:00 (00:00)Matthew ChristiansenMount Verita
175 Mtn Chaos Oct 12, 2023 $4.99N/A (N/A)0 .. 20,0000%00:00 (00:00)TnT Gamez LLCTnT Gamez LLC
176 SUPER 56 Oct 11, 2023 $6.99N/A (N/A)0 .. 20,0000%00:00 (00:00)Onion Soup InteractiveWhisperGames
177 Galaxy Kart VR Oct 11, 2023 $19.99N/A (N/A)0 .. 20,0000%00:00 (00:00)VRMonkeyVRMonkey
178 HORSES.IO: Horse Herd Racing Oct 10, 2023 $1.99N/A (N/A)0 .. 20,0000%00:00 (00:00)Ammonite Design Studios LtdAmmonite Design Studios Ltd
179 Forza Motorsport Oct 9, 2023 $69.99N/A (N/A)100,000 .. 200,00050%01:48 (01:48)Turn 10Xbox Game Studios
180 The Paper Aircraft of Childhood Oct 6, 2023 $2.99N/A (N/A)0 .. 20,0000%00:00 (00:00)魁日工作室魁日工作室
181 Rally Rock 'N Racing Oct 6, 2023 $9.99N/A (N/A)0 .. 20,0000%00:00 (00:00)Super PowerUp GamesSuper PowerUp Games
182 Speed Master Oct 6, 2023 $4.99N/A (N/A)0 .. 20,0000%00:00 (00:00)Carpi StudioCarpi Studio
183 Multiplayer Drone Simulator Oct 5, 2023 $0.99N/A (N/A)0 .. 20,0000%00:00 (00:00)Samet AcarUPCELL TELEKOMUNIKASYON LIMITED SIRKETI
184 TAGLINE Oct 5, 2023 $17.99N/A (N/A)0 .. 20,0000%00:00 (00:00)NOTHNOTH
185 Bump and Run Racing Oct 4, 2023 $1.99N/A (N/A)0 .. 20,0000%00:00 (00:00)Matt SwirblissSwerve Studios
186 SpaceRace Oct 3, 2023 $3.99N/A (N/A)0 .. 20,0000%00:00 (00:00)Megastructure GamesMegastructure Games
187 Spielbahn Sep 30, 2023 $2.99N/A (N/A)0 .. 20,0000%00:00 (00:00)Studio SchmudioStudio Schmudio
188 Baby Climbing Sep 29, 2023 $0.99N/A (N/A)0 .. 20,0000%00:00 (00:00)Little DogLittle Dog
189 Velocity Valley Sep 29, 2023 $4.99N/A (N/A)0 .. 20,0000%00:00 (00:00)AJAJ
190 Overpass 2 Sep 28, 2023 $17.99N/A (N/A)0 .. 20,0000%00:00 (00:00)NeopicaNacon
191 Fastest Cars Traffic Racer Sep 27, 2023 $0.99N/A (N/A)0 .. 20,0000%00:00 (00:00)Samet AcarUPCELL TELEKOMUNIKASYON LIMITED SIRKETI
192 Scape Run Sep 27, 2023 $14.99N/A (N/A)0 .. 20,0000%00:00 (00:00)LoftGames StudioLoftGames Studio
193 Retro Kart Sep 23, 2023 $2.99N/A (N/A)0 .. 20,0000%00:00 (00:00)FLASHBangFLASHBang
194 Cosmic Cowabunnies Sep 22, 2023 $4.99N/A (N/A)0 .. 20,0000%00:00 (00:00)Shawn KilianShawn Kilian
195 ArcRacer Sep 22, 2023 $8N/A (N/A)0 .. 20,0000%00:00 (00:00)foxel_foxel_
196 Real Drift Multiplayer 2 Sep 19, 2023 $0.99N/A (N/A)0 .. 20,0000%00:00 (00:00)Samet AcarUPCELL TELEKOMUNIKASYON LIMITED SIRKETI
197 Golf Evolution Simulation Sep 19, 2023 $4.54N/A (N/A)0 .. 20,0000%00:00 (00:00)Soner ÇakırSoner Çakır
198 World Fit Sep 19, 2023 $9.99N/A (N/A)0 .. 20,0000%00:00 (00:00)RevTech GamesRevTech Games
199 Car Mechanic: City Driving Sep 18, 2023 $0.99N/A (N/A)0 .. 20,0000%00:00 (00:00)Performance ArtistPerformance Artist
200 CADDE Sep 18, 2023 $2.9N/A (N/A)0 .. 20,0000%00:00 (00:00)Mehmet Fikret BabalıMehmet Fikret Babalı
201 Cars, Girls and Rock 'n' Roll Sep 18, 2023 $1.99N/A (N/A)0 .. 20,0000%00:00 (00:00)SP GAMESSP GAMES
202 StickSpinner Sep 17, 2023 $2.99N/A (N/A)0 .. 20,0000%00:00 (00:00)Shunpei MaedaShunpei Maeda
203 ASTRO-NOT Sep 16, 2023 $12.99N/A (N/A)0 .. 20,0000%00:00 (00:00)Daniel Paul GriffinIndependant
204 Posthaste Sep 15, 2023 $1.99N/A (N/A)0 .. 20,0000%00:00 (00:00)lightweight Digitallightweight Digital
205 NASCAR Arcade Rush Sep 15, 2023 $49.99N/A (N/A)0 .. 20,0000%00:00 (00:00)Team6 Game StudiosGameMill Entertainment
206 Redline Racing Sep 14, 2023 $5.99N/A (N/A)0 .. 20,0000%00:00 (00:00)Rotann ColynArcane Arts
207 Bus World Sep 14, 2023 $19.99N/A (N/A)20,000 .. 50,0000%00:00 (00:00)KishMish GamesKishMish Games
208 Karting Superstars Sep 13, 2023 $17.99N/A (N/A)0 .. 20,0000%00:00 (00:00)Original Fire GamesOriginal Fire Games
209 Gearhead Karting Simulator - Mechanic & Racing Sep 12, 2023 $2.49N/A (N/A)50,000 .. 100,0000%00:00 (00:00)Gearhead StudioMidnight Games
210 BIKEOUT Sep 12, 2023 $24.99N/A (N/A)0 .. 20,0000%00:00 (00:00)Black SwanBlack Swan
211 The Impossible Game 2 Sep 11, 2023 $4.99N/A (N/A)0 .. 20,0000%00:00 (00:00)Fluke GamesFluke Games
212 Ultimate Racing 2D 2 Sep 11, 2023 $9.99N/A (N/A)0 .. 20,0000%00:00 (00:00)ApplimazingApplimazing
213 Taxi Simulator in City Sep 10, 2023 $4.54N/A (N/A)0 .. 20,0000%00:00 (00:00)Soner ÇakırSoner Çakır
214 Inertia ball Sep 7, 2023 $4.99N/A (N/A)0 .. 20,0000%00:00 (00:00)卡皮卡皮工作室卡皮卡皮工作室
215 Warstride Challenges Sep 7, 2023 $9.99N/A (N/A)20,000 .. 50,0000%00:00 (00:00)Dream Powered GamesFocus Entertainment
216 Mountain Bicycle Rider Simulator Sep 6, 2023 $0.99N/A (N/A)0 .. 20,0000%00:00 (00:00)Yusuf Islam Seyhan, Samet AcarInspector Studios
217 Coin Chase Sep 6, 2023 $1.99N/A (N/A)0 .. 20,0000%00:00 (00:00)Adam SchmidtAdam Schmidt
218 Sqube Darkness Sep 4, 2023 $1.99N/A (N/A)0 .. 20,0000%00:00 (00:00)RH POSITIVERH POSITIVE
219 Forest Football Sep 4, 2023 $8.99N/A (N/A)0 .. 20,0000%00:00 (00:00)Golden CubeGolden Cube
220 Speed Truck Racing Sep 1, 2023 $9.99N/A (N/A)0 .. 20,0000%00:00 (00:00)Super PowerUp GamesSuper PowerUp Games
221 Bunny Guys! Sep 1, 2023 $6.99N/A (N/A)0 .. 20,0000%00:00 (00:00)Witte´s StudioWitte´s Studio
222 Kitten Tales Aug 30, 2023 $5.99N/A (N/A)0 .. 20,0000%00:00 (00:00)DokyDoky
223 Drift Cars Zombie Crusher Aug 30, 2023 $0.99N/A (N/A)0 .. 20,0000%00:00 (00:00)Samet AcarUPCELL TELEKOMUNIKASYON LIMITED SIRKETI
224 The Eastern Drive : Car Simulator Aug 29, 2023 $9.99N/A (N/A)0 .. 20,0000%00:00 (00:00)BlackPanzerYZBlackPanzerYZ
225 Raicing Aug 29, 2023 $9.99N/A (N/A)0 .. 20,0000%00:00 (00:00)Elijah Anadon, Aman Garg, Sebastian Gonzalez, Sotiris Psichomanis, Zaali Gratiashvili, David ShioElijah Anadon
226 Dirt Bike Racer Simulator Aug 29, 2023 $0.59N/A (N/A)0 .. 20,0000%00:00 (00:00)Yusuf Islam Seyhan, Samet AcarInspector Studios
227 Traffic Tour Aug 28, 2023 $9.99N/A (N/A)0 .. 20,0000%00:00 (00:00)Wolves InteractiveWolves Interactive
228 Rocket Jockey Aug 28, 2023 $7.99N/A (N/A)0 .. 20,0000%00:00 (00:00)Rocket Science Games, Jordan Freeman Group, SegaSoftCall Your Vegetables, ZOOM Platform Media
229 Midnight Thunder Drive Aug 28, 2023 $4.99N/A (N/A)20,000 .. 50,0000%00:00 (00:00)Runebox StudiosRunebox Studios
230 ANXRacers - Drift Space Aug 27, 2023 $2.99N/A (N/A)20,000 .. 50,0000%00:00 (00:00)AEonAX StudiosAEonAX Studios
231 Long Way Aug 26, 2023 $5.99N/A (N/A)0 .. 20,0000%00:00 (00:00)Eagle GamesEagle Games
232 Demolition Party Aug 25, 2023 $3.99N/A (N/A)0 .. 20,0000%00:00 (00:00)Bhor GamesBhor Games
233 Smells Like Burnt Rubber Aug 25, 2023 $12.99N/A (N/A)0 .. 20,0000%00:00 (00:00)Super Laser FreundeSuper Laser Freunde
234 RIDE 5 Aug 24, 2023 $29.99N/A (N/A)20,000 .. 50,0000%00:00 (00:00)Milestone S.r.l.Milestone S.r.l.
235 Pushing the limit Aug 24, 2023 $2.99N/A (N/A)0 .. 20,0000%00:00 (00:00)Gamix GamesGamix Games
236 VRIKING Aug 23, 2023 $5.59N/A (N/A)0 .. 20,0000%00:00 (00:00)Tom ReasonSHADA GAMES
237 EXORCISM Aug 23, 2023 $0.79N/A (N/A)0 .. 20,0000%00:00 (00:00)abAAbaabAAba
238 Smurfs Kart Aug 22, 2023 $29.99N/A (N/A)0 .. 20,0000%00:00 (00:00)Eden GamesMicroids
239 Rev to Vertex Aug 22, 2023 $23.8N/A (N/A)0 .. 20,0000%00:00 (00:00)PLUTONIZATIONZ-Challenger
240 Cyber Space Driver Aug 21, 2023 $2.99N/A (N/A)0 .. 20,0000%00:00 (00:00)Daniel Swonson, FreddbolDaniel Swonson
241 Block Queencard Aug 21, 2023 $1.19N/A (N/A)0 .. 20,0000%00:00 (00:00)ysys
242 Extreme Bus Driver Simulator Aug 18, 2023 $0.99N/A (N/A)0 .. 20,0000%00:00 (00:00)Samet AcarUPCELL TELEKOMUNIKASYON LIMITED SIRKETI
243 Plenty Karts Aug 18, 2023 $3.99N/A (N/A)0 .. 20,0000%00:00 (00:00)Sp4mm4geSp4mm4ge
244 Ducky Bouncy Aug 18, 2023 $7.59N/A (N/A)0 .. 20,0000%00:00 (00:00)TYVTYV
245 Up to the Unknown Aug 17, 2023 $8.99N/A (N/A)0 .. 20,0000%00:00 (00:00)Averous ArexArxia Studio
246 Hello Engineer: Scrap Machines Constructor Aug 17, 2023 $8.99N/A (N/A)0 .. 20,0000%00:00 (00:00)tinyBuild Riga, tinyBuildtinyBuild
247 Doodle Taxi Aug 16, 2023 $9.99N/A (N/A)0 .. 20,0000%00:00 (00:00)Metgan GamesMetgan Games
248 TaliVan Aug 16, 2023 $1.99N/A (N/A)0 .. 20,0000%00:00 (00:00)Michal Burnage, Gabriel MoldovanEarthDevs
249 Dirt Bicycle Rider Simulator Aug 15, 2023 $0.99N/A (N/A)0 .. 20,0000%00:00 (00:00)Samet AcarUPCELL TELEKOMUNIKASYON LIMITED SIRKETI
250 Real Motocross Driving Simulator Aug 14, 2023 $0.99N/A (N/A)0 .. 20,0000%00:00 (00:00)Samet AcarUPCELL TELEKOMUNIKASYON LIMITED SIRKETI
251 WildTrax Racing Aug 11, 2023 $7.99N/A (N/A)0 .. 20,0000%00:00 (00:00)Super PowerUp GamesSuper PowerUp Games
252 Synthwave Racers Aug 10, 2023 $5.99N/A (N/A)0 .. 20,0000%00:00 (00:00)Corrtex GamesCorrtex Games
253 New Star GP Aug 8, 2023 $29.99N/A (N/A)0 .. 20,0000%00:00 (00:00)New Star Games Ltd.Five Aces Publishing Ltd.
254 Micro Games: Volume 1 Aug 8, 2023 $1.99N/A (N/A)0 .. 20,0000%00:00 (00:00)64tacos LLC64tacos LLC
255 AVANTI - The Joy of Driving Aug 7, 2023 $1.99N/A (N/A)0 .. 20,0000%00:00 (00:00)BrandtnerBrandtner
256 FlyBird Leap Aug 7, 2023 $1.99N/A (N/A)0 .. 20,0000%00:00 (00:00)ysys
257 Tetris Bliss Aug 7, 2023 $1.99N/A (N/A)0 .. 20,0000%00:00 (00:00)ysys
258 Leap From Hell Aug 4, 2023 $9.99N/A (N/A)0 .. 20,0000%00:00 (00:00)EpiXR Games UGEpiXR Games UG
259 Police Car Escape Simulator Aug 4, 2023 $0.99N/A (N/A)0 .. 20,0000%00:00 (00:00)Samet AcarUPCELL TELEKOMUNIKASYON LIMITED SIRKETI
260 ApocalypticSoup's Racing Sim Experience (A.R.S.E) Aug 2, 2023 $5.99N/A (N/A)0 .. 20,0000%00:00 (00:00)ApocalypticSoupGamesApocalypticSoupGames
261 Wildwood Divas Aug 2, 2023 $1.99N/A (N/A)0 .. 20,0000%00:00 (00:00)ysys
262 School Bus Driving Simulator Aug 2, 2023 $0.99N/A (N/A)0 .. 20,0000%00:00 (00:00)Samet AcarUPCELL TELEKOMUNIKASYON LIMITED SIRKETI
263 Nightshift Aug 1, 2023 $2.5N/A (N/A)0 .. 20,0000%00:00 (00:00)Glitched PolygonsGlitched Polygons
264 Magyarock VR Aug 1, 2023 $14.99N/A (N/A)0 .. 20,0000%00:00 (00:00)RatzeeRatzee
265 SPLASH OUT! Aug 1, 2023 $5.99N/A (N/A)0 .. 20,0000%00:00 (00:00)FORCE GAME STUDIO LLCFORCE GAME STUDIO LLC
266 DriveCrazy Jul 31, 2023 $6.39N/A (N/A)0 .. 20,0000%00:00 (00:00)TubezGamesTubezGames
267 All-In-One Summer Sports VR Jul 30, 2023 $19.99N/A (N/A)0 .. 20,0000%00:00 (00:00)Appnori Inc.Appnori Inc.
268 Master The Sky - Drones Unleashed Jul 30, 2023 $4.99N/A (N/A)0 .. 20,0000%00:00 (00:00)Pastelcube Technologies Private LimitedPastelcube Technologies Private Limited
269 Faster Racer Boom Boom Jul 28, 2023 $9.99N/A (N/A)0 .. 20,0000%00:00 (00:00)The Guidance DivisionJohnny Wants A Game
270 Uptown Outbreak Jul 28, 2023 $2.99N/A (N/A)0 .. 20,0000%00:00 (00:00)PRINTmovPRINTmov
271 Street Legal 1: REVision Jul 28, 2023 $6.99N/A (N/A)0 .. 20,0000%00:00 (00:00)Invictus Games Ltd., ImageCodeActivision Value Inc., ImageCode
272 Super Box Delivery: Beyond the Horizon Jul 28, 2023 $4.99N/A (N/A)0 .. 20,0000%00:00 (00:00)Revulo GamesRevulo Games
273 Achievement Display Cabinet Jul 28, 2023 $0.99N/A (N/A)0 .. 20,0000%00:00 (00:00)shiliangmu00abcshiliangmu00abc
274 Monster Truck Fury Jul 27, 2023 $4.99N/A (N/A)0 .. 20,0000%00:00 (00:00)Iridon InteractiveSkeleton Crew Labs
275 DRAFTYCAR Jul 21, 2023 $6.99N/A (N/A)0 .. 20,0000%00:00 (00:00)Bryan BlackfordSpeedway Labs
276 Stupid Camera Jul 21, 2023 $0.99N/A (N/A)0 .. 20,0000%00:00 (00:00)Noob8890Noob8890
277 Speedway Racing Jul 21, 2023 $9.99N/A (N/A)0 .. 20,0000%00:00 (00:00)Super PowerUp GamesSuper PowerUp Games
278 Hurricane chase(飓风追击) Jul 20, 2023 $0.99N/A (N/A)0 .. 20,0000%00:00 (00:00)2AM(熬夜工作室)2AM(熬夜工作室)
279 Grapple League Jul 20, 2023 $7.99N/A (N/A)0 .. 20,0000%00:00 (00:00)Rain Check StudiosRain Check Studios
280 Dream Swing Jul 20, 2023 $2.24N/A (N/A)0 .. 20,0000%00:00 (00:00)Tolga AyTolga Ay
281 Magical Girl Dash Jul 19, 2023 $0.99N/A (N/A)0 .. 20,0000%00:00 (00:00)Synnergy Circle GamesSynnergy Circle Games
282 Gleeb Glob Jul 18, 2023 $0.99N/A (N/A)0 .. 20,0000%00:00 (00:00)BlankBoyGamesBlankBoyGames
283 Build and Drive Racing Jul 18, 2023 $6.99N/A (N/A)20,000 .. 50,0000%00:00 (00:00)VRdevelopmentPhone Software Ltd
284 inRun Jul 17, 2023 $14.99N/A (N/A)0 .. 20,0000%00:00 (00:00)Ivanovich GamesIvanovich Games
285 West Ride Jul 17, 2023 $0.99N/A (N/A)100,000 .. 200,0000%00:00 (00:00)Sunil SutariyaSutariya Studios
286 Lawnmower Game: Mission X Jul 16, 2023 $0.55N/A (N/A)0 .. 20,0000%00:00 (00:00)Tero Lunkka, Valkeala SoftwareTero Lunkka
287 Magnytour Jul 14, 2023 $14.99N/A (N/A)0 .. 20,0000%00:00 (00:00)Pandaroo InteractivePandaroo Interactive
288 Brick Rigs Jul 14, 2023 $18.99N/A (N/A)1,000,000 .. 2,000,0000%00:00 (00:00)FluppisoftFluppisoft
289 Babe Balloon Blast Jul 13, 2023 $1.99N/A (N/A)0 .. 20,0000%00:00 (00:00)ysys
290 Real Drift Multiplayer Jul 13, 2023 $0.99N/A (N/A)0 .. 20,0000%00:00 (00:00)Samet AcarUPCELL TELEKOMUNIKASYON LIMITED SIRKETI
291 Garbage Truck Driving Simulator Jul 13, 2023 $0.99N/A (N/A)0 .. 20,0000%00:00 (00:00)Samet AcarUPCELL TELEKOMUNIKASYON LIMITED SIRKETI
292 Police Car SUV Simulator Jul 13, 2023 $0.99N/A (N/A)0 .. 20,0000%00:00 (00:00)Samet AcarUPCELL TELEKOMUNIKASYON LIMITED SIRKETI
293 Live Cycling Manager 2023 Jul 13, 2023 $9.99N/A (N/A)0 .. 20,0000%00:00 (00:00)Xagu StudiosXagu Studios
294 City Car Parking Simulator Jul 11, 2023 $0.99N/A (N/A)0 .. 20,0000%00:00 (00:00)Samet AcarUPCELL TELEKOMUNIKASYON LIMITED SIRKETI
295 IMPULSE Jul 11, 2023 $2.99N/A (N/A)0 .. 20,0000%00:00 (00:00)ZZYZX RD game studiosZZYZX RD game studios
296 Octane Remix Jul 7, 2023 $9.99N/A (N/A)0 .. 20,0000%00:00 (00:00)Team VelocitaTeam Velocita
297 Racing Tanks! Jul 7, 2023 $3.99N/A (N/A)0 .. 20,0000%00:00 (00:00)ManuEchevesteManuEcheveste
298 DRIFTHUB Jul 6, 2023 $0.99N/A (N/A)0 .. 20,0000%00:00 (00:00)Mevlut kartMevlut kart
299 VBOX Sim Jul 5, 2023 $129.99N/A (N/A)0 .. 20,0000%00:00 (00:00)RacelogicRacelogic
300 Formula 2707 - All Stars Kombat Jul 5, 2023 $3.99N/A (N/A)0 .. 20,0000%00:00 (00:00)Luca Ricciardi Serafino de ConciliisLRSdeCo
301 Fox Run Jul 3, 2023 $1.99N/A (N/A)0 .. 20,0000%00:00 (00:00)Hora Timer StudioHora Timer Studio
302 FPV LOGIC Jun 30, 2023 $19.99N/A (N/A)0 .. 20,0000%00:00 (00:00)UT STUDIOUT STUDIO
303 Paper Plane Jun 30, 2023 $1.99N/A (N/A)0 .. 20,0000%00:00 (00:00)Headbang StudioHeadbang Studio
304 Perfect Partner Jun 29, 2023 $8.99N/A (N/A)20,000 .. 50,0000%00:00 (00:00)RD StudioLeyo Games
305 The Drift Challenge Jun 29, 2023 $5.99N/A (N/A)20,000 .. 50,0000%00:00 (00:00)Vencious GamesVencious Games
306 Qwerty Quest Jun 29, 2023 $4.99N/A (N/A)0 .. 20,0000%00:00 (00:00)Shawn KilianShawn Kilian
307 Impossible Stunts Jun 29, 2023 $199.99N/A (N/A)0 .. 20,0000%00:00 (00:00)GamesforgamesGamesforgames
308 A Car That Turns Jun 28, 2023 $1.99N/A (N/A)0 .. 20,0000%00:00 (00:00)Amir RajanScratchwork Development LLC
309 Necrodome Jun 28, 2023 $9.99N/A (N/A)50,000 .. 100,0000%00:00 (00:00)Raven SoftwareSNEG
310 Doomsday Derby Jun 27, 2023 $4.99N/A (N/A)0 .. 20,0000%00:00 (00:00)LFR gamesLFR games
311 Downhill Pro Racer Jun 23, 2023 $12.99N/A (N/A)0 .. 20,0000%00:00 (00:00)Germán de la FuenteGermán de la Fuente
312 EreaDrone | FPV Drone Simulator Jun 23, 2023 $24.99N/A (N/A)0 .. 20,0000%00:00 (00:00)EreaDroneEreaDrone
313 Monopoly Madness Jun 22, 2023 $29.99N/A (N/A)0 .. 20,0000%00:00 (00:00)Engine Software, UbisoftUbisoft
314 Steel Racer Jun 19, 2023 $4.99N/A (N/A)0 .. 20,0000%00:00 (00:00)lightUPlightUP
315 DownhillVR Jun 15, 2023 $14.99N/A (N/A)0 .. 20,0000%00:00 (00:00)FiredBy s.r.o.FiredBy s.r.o.
316 It's Only Money Jun 15, 2023 $19.99N/A (N/A)50,000 .. 100,0000%00:00 (00:00)Usual Suspects StudiosUsual Suspects Studios
317 Bounty: Drag Racing Jun 15, 2023 $14.99N/A (N/A)0 .. 20,0000%00:00 (00:00)KODgamesKODgames
318 Venture's Gauntlet VR Jun 15, 2023 $24.99N/A (N/A)0 .. 20,0000%00:00 (00:00)Bearhammer Games LTDBearhammer Games LTD
319 Heist Kitty: Multiplayer Cat Simulator Game Jun 13, 2023 $14.99N/A (N/A)0 .. 20,0000%00:00 (00:00)LetMeowt Games LLCExcalibur Games
320 Hot Rider Jun 12, 2023 $3.99N/A (N/A)0 .. 20,0000%00:00 (00:00)PRO PLAYA DEVPRO PLAYA DEV
321 Classic Sport Driving Jun 12, 2023 $4.99N/A (N/A)0 .. 20,0000%00:00 (00:00)Pixel WrappersPixel Wrappers
322 Flyto Jun 11, 2023 $13.99N/A (N/A)0 .. 20,0000%00:00 (00:00)7M Game Studio7M Game Studio
323 Rival Rides Jun 11, 2023 FreeN/A (N/A)0 .. 20,0000%00:00 (00:00)ByOwls, Argarium LTDArgarium LTD
324 Tight Ride Jun 10, 2023 $4.99N/A (N/A)0 .. 20,0000%00:00 (00:00)300 fps300 fps
325 Super Monkie Bounce Fatal Jun 10, 2023 $3.99N/A (N/A)0 .. 20,0000%00:00 (00:00)La CringerieLa Cringerie
326 True Driver Jun 9, 2023 $1.99N/A (N/A)0 .. 20,0000%00:00 (00:00)Creative SealCreative Seal
327 Ma3 Jun 9, 2023 $9.99N/A (N/A)0 .. 20,0000%00:00 (00:00)Matheesan, AhilaMatheesan
328 Miles of Cubes Jun 8, 2023 $3.99N/A (N/A)0 .. 20,0000%00:00 (00:00)CBO GamesSaeng Gang
329 MotoGP23 Jun 8, 2023 $49.99N/A (N/A)20,000 .. 50,0000%00:00 (00:00)Milestone S.r.l.Milestone S.r.l.
330 Tour de France 2023 Jun 8, 2023 $9.99N/A (N/A)0 .. 20,0000%00:00 (00:00)CyanideNacon
331 Pro Cycling Manager 2023 Jun 8, 2023 $9.99N/A (N/A)20,000 .. 50,0000%00:00 (00:00)Cyanide StudioNacon
332 Riders Republic Jun 8, 2023 $39.99N/A (N/A)500,000 .. 1,000,0006.82%02:03 (01:55)Ubisoft Annecy, Ubisoft Belgrade, Ubisoft Kyiv, Ubisoft Pune, Ubisoft OdesaUbisoft Entertainment
333 Late Night Drive Jun 7, 2023 $1.99N/A (N/A)0 .. 20,0000%00:00 (00:00)HasanKlnccHasanKlncc
334 Chasing rabbits in snow Jun 7, 2023 $1.99N/A (N/A)20,000 .. 50,0000%00:00 (00:00)African boy Keita studioAfrican boy Keita studio
335 Ciudad Alfombra Jun 7, 2023 $0.9N/A (N/A)0 .. 20,0000%00:00 (00:00)Loquendero DevLoquendero Dev
336 Old Town Bus Simulator Jun 5, 2023 $4.49N/A (N/A)0 .. 20,0000%00:00 (00:00)BaronLucky Duck Games
337 Crossing Damaged Bridge Jun 2, 2023 $44.99N/A (N/A)0 .. 20,0000%00:00 (00:00)Dudu
338 Dealership Simulator Jun 2, 2023 $4.99N/A (N/A)0 .. 20,0000%00:00 (00:00)Ertugrul KindansMetacortex
339 Age of the Duel Jun 2, 2023 $4.99N/A (N/A)100,000 .. 200,0000%00:00 (00:00)Jakob DelzerIndie
340 Drift Reign Jun 2, 2023 $2.99N/A (N/A)0 .. 20,0000%00:00 (00:00)PublishMe Agency LimitedPublishMe Agency Limited
341 Driftwood Jun 1, 2023 $11.99N/A (N/A)0 .. 20,0000%00:00 (00:00)Stoked Sloth InteractiveStoked Sloth Interactive
342 Drift Type C May 31, 2023 $19.99N/A (N/A)100,000 .. 200,0000%00:00 (00:00)Jonworks InteractiveJonworks Interactive
343 GeneRally 2 May 30, 2023 $14.99N/A (N/A)0 .. 20,0000%00:00 (00:00)Curious Chicken GamesCurious Chicken Games
344 Speedway Challenge 2023 May 29, 2023 $10.99N/A (N/A)100,000 .. 200,0000%00:00 (00:00)Artur Berkowski BerobasketArtur Berkowski Berobasket
345 Need for Drifting May 27, 2023 $4.49N/A (N/A)0 .. 20,0000%00:00 (00:00)Morte Accendere
346 The Ball 2 May 26, 2023 $7.99N/A (N/A)0 .. 20,0000%00:00 (00:00)MauznemoMauznemo
347 Tennis Manager 2023 May 25, 2023 $13.99N/A (N/A)0 .. 20,00050%05:20 (05:20)Rebound CGRebound CG
348 Hard Life Game May 25, 2023 $19.99N/A (N/A)0 .. 20,0000%00:00 (00:00)RikardoRikardo
349 Tenders Fight May 25, 2023 $4.99N/A (N/A)0 .. 20,0000%00:00 (00:00)Isaac MENARD, Tom BOUTONNAT, Ethis CLAUSS, Gabriel SOUSSIIsaac MENARD
350 Summer Trip Cruise May 25, 2023 $9.74N/A (N/A)0 .. 20,0000%00:00 (00:00)Gius CaminitiGius Caminiti
351 Tuk Tuk Race May 25, 2023 $3.99N/A (N/A)0 .. 20,0000%00:00 (00:00)INORK GameINORK Game
352 No Legs? No Problem! May 24, 2023 $3.99N/A (N/A)0 .. 20,0000%00:00 (00:00)Ethereal GamesEthereal Games
353 Cosmic Overdrive May 23, 2023 $6.99N/A (N/A)0 .. 20,0000%00:00 (00:00)VRGE StudiosVRGE Studios
354 Future Racer 2000 May 22, 2023 $4.99N/A (N/A)0 .. 20,0000%00:00 (00:00)Tim Oxtonoxblud
355 ForRace GT2D May 20, 2023 $3.99N/A (N/A)0 .. 20,0000%00:00 (00:00)Kanuni Games OYUN YAZILIM VE PAZARLAMA Ticaret Limited SirketiKanuni Games OYUN YAZILIM VE PAZARLAMA Ticaret Limited Sirketi
356 Rocket Assault: Downhill Rush May 20, 2023 $9.99N/A (N/A)0 .. 20,0000%00:00 (00:00)Giovanni ElgertGiovanni Elgert
357 Bike Offroad Simulator May 19, 2023 $99.99N/A (N/A)0 .. 20,0000%00:00 (00:00)Atomic FabrikAtomic Fabrik
358 LEGO 2K Drive May 18, 2023 $19.79N/A (N/A)100,000 .. 200,0000%00:00 (00:00)Visual Concepts2K
359 Aerial Platforms May 18, 2023 $5.99N/A (N/A)20,000 .. 50,0000%00:00 (00:00)High Performance GamesHigh Performance Games
360 Last Holiday May 18, 2023 $29.99N/A (N/A)0 .. 20,0000%00:00 (00:00)Boomer Games s.r.o.Boomer Games s.r.o.
361 Deadblast May 17, 2023 $9.99N/A (N/A)0 .. 20,0000%00:00 (00:00)GamesforgamesGamesforgames
362 Wheelie Life May 15, 2023 $2.99N/A (N/A)0 .. 20,0000%00:00 (00:00)ak.devak.dev
363 Toon Toon Racing May 15, 2023 $3.99N/A (N/A)0 .. 20,0000%00:00 (00:00)Carmesim Game Studio LtdaCarmesim Game Studio Ltda
364 Blobi Sprint May 12, 2023 $0.99N/A (N/A)0 .. 20,0000%00:00 (00:00)ChOuetteChOuette-Games
365 Project Drift May 11, 2023 $1.99N/A (N/A)100,000 .. 200,0000%00:00 (00:00)Integer GamesInteger Games
366 Rolling Ball : Sphere Guider May 11, 2023 FreeN/A (N/A)0 .. 20,0000%00:00 (00:00)Velite GamesVelite Games
367 TT Isle Of Man: Ride on the Edge 3 May 11, 2023 $24.99N/A (N/A)0 .. 20,0000%00:00 (00:00)Raceward StudioNacon
368 Cargo Truck Racer May 10, 2023 $1.19N/A (N/A)0 .. 20,0000%00:00 (00:00)NanningsGamesNanningsGames
369 Super Cars (Amiga/C64/CPC/Spectrum) May 9, 2023 $6.99N/A (N/A)0 .. 20,0000%00:00 (00:00)Magnetic FieldsPixel Games UK
370 RushLane May 7, 2023 $29.99N/A (N/A)0 .. 20,0000%00:00 (00:00)AAA777 Game StudioAAA777 Game Studio
371 Coral Caper May 7, 2023 $9.99N/A (N/A)0 .. 20,0000%00:00 (00:00)Cola Dog Game StudioCola Dog Game Studio
372 Graveyard Sprint May 7, 2023 $0.99N/A (N/A)0 .. 20,0000%00:00 (00:00)Baiyun Game StudioBaiyun Game Studio
373 PumpKin Majo May 6, 2023 $9.99N/A (N/A)0 .. 20,0000%00:00 (00:00)HEG GamesHEG Games
374 Island May 6, 2023 $4.99N/A (N/A)0 .. 20,0000%00:00 (00:00)The FirstThe First
375 Beach Gas Gas May 3, 2023 $99.99N/A (N/A)0 .. 20,0000%00:00 (00:00)Atomic FabrikAtomic Fabrik
376 Zero-G-Racer : Drone FPV arcade game May 1, 2023 $9.99N/A (N/A)50,000 .. 100,0000%00:00 (00:00)Zero-G-RacerZero-G-Racer
377 Amazing Maze May 1, 2023 $2.99N/A (N/A)0 .. 20,0000%00:00 (00:00)Lucky Raccoon GamesLucky Raccoon Games
378 CUBERUN May 1, 2023 $3.99N/A (N/A)0 .. 20,0000%00:00 (00:00)Gut AndreiGgames
379 Commando Hero Apr 28, 2023 $3.99N/A (N/A)20,000 .. 50,0000%00:00 (00:00)Montee GamesMontee Games
380 Cyber Drift Apr 28, 2023 $6.99N/A (N/A)0 .. 20,0000%00:00 (00:00)Meng GamesMeng Games
381 Wanted Driver Apr 28, 2023 $1.99N/A (N/A)0 .. 20,0000%00:00 (00:00)InogamesInogames
382 Skiing Frenzy Apr 28, 2023 $0.99N/A (N/A)0 .. 20,0000%00:00 (00:00)LGVLGV
383 KARTMania Apr 27, 2023 $4.99N/A (N/A)0 .. 20,0000%00:00 (00:00)codeArts K.K.codeArts K.K.
384 Climb New York Parkour VR Apr 27, 2023 $19.99N/A (N/A)0 .. 20,0000%00:00 (00:00)Srio VR StudioSrio VR Studio
385 Barro T23 Apr 25, 2023 $0.49N/A (N/A)0 .. 20,0000%00:00 (00:00)SC JogosSC Jogos
386 Auto Mechanic Sim Apr 24, 2023 $3.99N/A (N/A)0 .. 20,0000%00:00 (00:00)Skeleton Studios
387 Gold Rush Apr 23, 2023 $0.99N/A (N/A)0 .. 20,0000%00:00 (00:00)BloodRain PublishingConglomerate 5
388 Car Parkour Apr 22, 2023 $99.99N/A (N/A)0 .. 20,0000%00:00 (00:00)Atomic FabrikAtomic Fabrik
389 Formula TOP Apr 21, 2023 $12.99N/A (N/A)0 .. 20,0000%00:00 (00:00)SQX InteractiveSQX Interactive
390 Pixel Driver Apr 21, 2023 $5.99N/A (N/A)0 .. 20,0000%00:00 (00:00)Pretty Fly GamesPretty Fly Games
391 Nutty Motorcars Apr 19, 2023 $4.99N/A (N/A)20,000 .. 50,0000%00:00 (00:00)CreartoriaCreartoria
392 Drift Showcase Apr 14, 2023 N/AN/A (N/A)0 .. 20,0000%00:00 (00:00)Vencious GamesVencious Games
393 Star and Wish Apr 13, 2023 $0.99N/A (N/A)0 .. 20,0000%00:00 (00:00)Star GamesStar Games
394 Asuji: The Legend of You Apr 13, 2023 $2.99N/A (N/A)0 .. 20,0000%00:00 (00:00)Somnolent Team, Sproot ProductionSomnolent Team
395 Malware Derby Apr 13, 2023 $0.99N/A (N/A)0 .. 20,0000%00:00 (00:00)8bit_heresy GamesDeveloped On Instinct Games
396 Crazy Prisoner Apr 11, 2023 $0.99N/A (N/A)0 .. 20,0000%00:00 (00:00)BloodRain PublishingConglomerate 5
397 幻影魔都 Apr 11, 2023 $9.99N/A (N/A)0 .. 20,0000%00:00 (00:00)AD Games, 阿地AD Games, 阿地
398 Don't Rage Apr 8, 2023 $3.99N/A (N/A)0 .. 20,0000%00:00 (00:00)KillianKillian
399 Long Truck Simulator Apr 7, 2023 $199.99N/A (N/A)0 .. 20,0000%00:00 (00:00)GamesforgamesGamesforgames
400 Extreme Offroad Simulator Apr 5, 2023 $44.99N/A (N/A)0 .. 20,0000%00:00 (00:00)BaronStud幸运硬币工作室
401 First Racer Apr 5, 2023 $2.99N/A (N/A)0 .. 20,0000%00:00 (00:00)Perfect GamesPerfect Games
402 Fluxion Apr 4, 2023 $29.99N/A (N/A)0 .. 20,0000%00:00 (00:00)Mystic Panda GamesMystic Panda Games
403 Terminal Velocity Apr 4, 2023 $29.99N/A (N/A)0 .. 20,0000%00:00 (00:00)Ali101 Game StudioAli101 Game Studio
404 Race Code Apr 4, 2023 $9.99N/A (N/A)0 .. 20,0000%00:00 (00:00)GREEN INNOVATIVE TECHNOLOGY LLCGREEN INNOVATIVE TECHNOLOGY LLC
405 Formula Retro Racing - World Tour Mar 31, 2023 $19.99N/A (N/A)0 .. 20,0000%00:00 (00:00)Repixel8, CGA StudioCGA Studio
406 HIT Mar 31, 2023 $1.99N/A (N/A)0 .. 20,0000%00:00 (00:00)EP4, EP, IPEP4, EP, IP
407 Robot Lawn Mower Mar 31, 2023 $5.99N/A (N/A)0 .. 20,0000%00:00 (00:00)Ammonite Design Studios LtdAmmonite Design Studios Ltd
408 Ninja Scroller Mar 31, 2023 $7.99N/A (N/A)0 .. 20,0000%00:00 (00:00)Mars Touch StudioMars Touch Studio
409 Cube Roller Mar 31, 2023 $4.99N/A (N/A)0 .. 20,0000%00:00 (00:00)yeah/nice, Aidan Ault, Hunti Aultyeah/nice
410 Nautikin Adventures Mar 31, 2023 $19.99N/A (N/A)0 .. 20,0000%00:00 (00:00)RevmatekRevmatek
411 Rally 9000 Mar 30, 2023 $9.99N/A (N/A)100,000 .. 200,0000%00:00 (00:00)Tegridy Made GamesTegridy Made Games
412 Eggcelerate! to the Tropics Mar 30, 2023 $11.99N/A (N/A)0 .. 20,0000%00:00 (00:00)Tim Beaudet, Tyre Bytes LLCTyre Bytes LLC
413 Initial Drift Online Mar 30, 2023 $4.99N/A (N/A)100,000 .. 200,0000%00:00 (00:00)RewindAppRewindApp
414 Grow and Smile - For Balling Mar 30, 2023 $0.99N/A (N/A)0 .. 20,0000%00:00 (00:00)GS GamesGS Games
415 Overdelivery Mar 28, 2023 $3.99N/A (N/A)0 .. 20,0000%00:00 (00:00)BigFrog StudiosBigFrog Studios
416 That Racecar Game Mar 27, 2023 $0.99N/A (N/A)0 .. 20,0000%00:00 (00:00)Dan's GamesDan's Games
417 Day at the Races Mar 26, 2023 $4.99N/A (N/A)0 .. 20,0000%00:00 (00:00)Friday Night SoftwareFriday Night Software
418 Radical Road Mar 25, 2023 $1.99N/A (N/A)0 .. 20,0000%00:00 (00:00)Kristian BjerreGanske Danske
419 Wonder Trips Mar 24, 2023 $4.99N/A (N/A)0 .. 20,0000%00:00 (00:00)SAYOO StudioSAYOO Studio
420 Draw Rider Remake Mar 24, 2023 $19.99N/A (N/A)0 .. 20,0000%00:00 (00:00)17Studio17Studio
421 Dangerous Road Mar 24, 2023 $10N/A (N/A)0 .. 20,0000%00:00 (00:00)Abdulrahman AlshahraniAbdulrahman Alshahrani
422 Avoid It! Mar 24, 2023 $0.99N/A (N/A)0 .. 20,0000%00:00 (00:00)Atomic FabrikAtomic Fabrik
423 Monster Racing League Mar 23, 2023 FreeN/A (N/A)0 .. 20,0000%00:00 (00:00)FlightlessFlightless
424 Running Guys Mar 21, 2023 $1.99N/A (N/A)0 .. 20,0000%00:00 (00:00)Cats and FoxesCats and Foxes
425 Turbo Racing Mar 20, 2023 $1.99N/A (N/A)0 .. 20,0000%00:00 (00:00)EnoopsEnoops
426 Off The Tracks Mar 17, 2023 $3.99N/A (N/A)0 .. 20,0000%00:00 (00:00)LonemindedLoneminded
427 Hell of an Office Mar 14, 2023 $11.24N/A (N/A)20,000 .. 50,0000%00:00 (00:00)43 StudiosJoystick Ventures
428 Aniballs Mar 14, 2023 FreeN/A (N/A)0 .. 20,0000%00:00 (00:00)UlteamateUlteamate
429 MiLE HiGH TAXi Mar 13, 2023 $11.04N/A (N/A)0 .. 20,0000%00:00 (00:00)Cassius John-AdamsCassius John-Adams
430 Dude Simulator 5 Mar 10, 2023 $0.69N/A (N/A)0 .. 20,0000%00:00 (00:00)KiddyKiddy
431 Super Block Crush Mar 10, 2023 $2.99N/A (N/A)0 .. 20,0000%00:00 (00:00)Aton GamesAton Games
432 ITRP _ Aero Star Mar 9, 2023 $1.99N/A (N/A)20,000 .. 50,0000%00:00 (00:00)UnhexigionUnhexigion
433 Monster Energy Supercross - The Official Videogame 6 Mar 9, 2023 $49.99N/A (N/A)0 .. 20,0000%00:00 (00:00)Milestone S.r.l.Milestone S.r.l.
434 Pretend Cars Racing Mar 8, 2023 $4.99N/A (N/A)0 .. 20,0000%00:00 (00:00)Patricio MarinPatricio Marin
435 THGITW Mar 8, 2023 $5N/A (N/A)0 .. 20,0000%00:00 (00:00)ExentertainmentExentertainment
436 Conur Life Mar 6, 2023 $5.99N/A (N/A)0 .. 20,0000%00:00 (00:00)LutteLutte
437 Drift Experience Japan: Supporter Edition Mar 6, 2023 $0.99N/A (N/A)0 .. 20,0000%00:00 (00:00)Game Development Alexander LamersGame Development Alexander Lamers
438 Lawnmower Game: Zombies Mar 6, 2023 $0.55N/A (N/A)20,000 .. 50,0000%00:00 (00:00)Tero Lunkka, Valkeala SoftwareTero Lunkka
439 Apex Point Mar 4, 2023 $18.99N/A (N/A)20,000 .. 50,0000%00:00 (00:00)Apex StudioApex Studio
440 CARTOONITE Mar 3, 2023 $4.99N/A (N/A)0 .. 20,0000%00:00 (00:00)Tuning ManiaTuning Mania
441 Chicago 2020 Mar 2, 2023 $3N/A (N/A)20,000 .. 50,0000%00:00 (00:00)noxworldnoxworld
442 Dust Devil Mar 1, 2023 $3.99N/A (N/A)0 .. 20,0000%00:00 (00:00)Toster12D3, Wolfus, ErChA Game From Low Polystan
443 Wheelie King 5 Mar 1, 2023 $1.99N/A (N/A)0 .. 20,0000%00:00 (00:00)Kimble GamesKimble Games
444 Rhythm Drive: Synthwave City Feb 27, 2023 $2.99N/A (N/A)0 .. 20,0000%00:00 (00:00)Lone Hussar StudiosLone Hussar Studios
445 Special Courier Feb 27, 2023 $29.99N/A (N/A)0 .. 20,0000%00:00 (00:00)Atomic Fabrik, Cristian ManolachiAtomic Fabrik, Cristian Manolachi
446 Toy Rider Feb 27, 2023 $2.99N/A (N/A)0 .. 20,0000%00:00 (00:00)Omnaya StudiosOmnaya Studios
447 307 Racing Feb 26, 2023 $0.99N/A (N/A)0 .. 20,0000%00:00 (00:00)STuNTSTuNT
448 Target G Feb 23, 2023 $1.09N/A (N/A)0 .. 20,0000%00:00 (00:00)ST BEA GAMESST BEA GAMES
449 Offroad Jeep 4x4: Car Driving Simulator Feb 22, 2023 $0.99N/A (N/A)0 .. 20,0000%00:00 (00:00)Yusuf Islam Seyhan, Samet AcarInspector Studios
450 Speedonauts : Jetpack Speedrun Skiing Feb 21, 2023 $7.99N/A (N/A)20,000 .. 50,0000%00:00 (00:00)World Away GamesWorld Away Games
451 Classic Car Simulator: Car Driving Feb 21, 2023 $0.59N/A (N/A)0 .. 20,0000%00:00 (00:00)Yusuf Islam Seyhan, Samet AcarInspector Studios
452 Universal Truck Simulator Tow Games Feb 21, 2023 $1.99N/A (N/A)0 .. 20,0000%00:00 (00:00)Winer Game StudioWiner Game Studio
453 Roadkill Raceway Feb 20, 2023 $0.99N/A (N/A)0 .. 20,0000%00:00 (00:00)Tom's Feral Cat GamesTom's Feral Cat Games
454 Hkons Beanrunner Feb 20, 2023 $2.2N/A (N/A)20,000 .. 50,0000%00:00 (00:00)HkonHkon
455 Draw the Road Feb 20, 2023 $39.99N/A (N/A)0 .. 20,0000%00:00 (00:00)游戏工艺
456 Cargo Truck Simulator 2023 Feb 19, 2023 $0.59N/A (N/A)0 .. 20,0000%00:00 (00:00)Yusuf Islam Seyhan, Samet AcarInspector Studios
457 Gigantosaurus: Dino Kart Feb 17, 2023 $39.99N/A (N/A)0 .. 20,0000%00:00 (00:00)3DCloudsOutright Games Ltd.
458 Drifting with Maxwell Cat: The Game Feb 17, 2023 $1.39N/A (N/A)0 .. 20,0000%00:00 (00:00)GameToTopGameToTop
459 Rooftop Renegade Feb 16, 2023 $17.99N/A (N/A)0 .. 20,0000%00:00 (00:00)Melonhead Games Pty LtdMelonhead Games Pty Ltd
460 Tofas Sahin: Online Car Driving Feb 15, 2023 $1.99N/A (N/A)0 .. 20,0000%00:00 (00:00)Yusuf Islam Seyhan, Samet AcarInspector Studios
461 MathCar Feb 15, 2023 $3.99N/A (N/A)0 .. 20,0000%00:00 (00:00)Bog Iron GamesBog Iron Games
462 Fumpers Feb 14, 2023 $1.99N/A (N/A)50,000 .. 100,0000%00:00 (00:00)KurtSoft, Fırat KurtKurtSoft
463 Police Car Armored: Cop Simulator Feb 14, 2023 $0.99N/A (N/A)0 .. 20,0000%00:00 (00:00)Yusuf Islam Seyhan, Samet AcarInspector Studios
464 Crazy Hill Racing Feb 14, 2023 $39.99N/A (N/A)0 .. 20,0000%00:00 (00:00)Bitwave Games
465 Buggy Feb 14, 2023 $7.99N/A (N/A)0 .. 20,0000%00:00 (00:00)Gremlin InteractivePixel Games UK
466 Tony Slopes Feb 14, 2023 $19.99N/A (N/A)0 .. 20,0000%00:00 (00:00)SEEDTECH Studios LtdSEEDTECH Studios Ltd
467 Baldy Bounce Feb 13, 2023 $9.99N/A (N/A)0 .. 20,0000%00:00 (00:00)Parkwar LabsParkwar Labs
468 Gangster City: Mafia Car Driving Feb 12, 2023 $0.99N/A (N/A)0 .. 20,0000%00:00 (00:00)Yusuf Islam Seyhan, Samet AcarInspector Studios
469 Warehouse Simulator: Forklift Driver Feb 11, 2023 $10.99N/A (N/A)0 .. 20,0000%00:00 (00:00)Andreev Worlds, GamesforgamesGamesforgames, Andreev Worlds
470 E30 Drift Car Simulator Feb 10, 2023 $0.59N/A (N/A)0 .. 20,0000%00:00 (00:00)Yusuf Islam Seyhan, Samet AcarInspector Studios
471 Taxi Driver Simulator: Car Parking Feb 9, 2023 $0.99N/A (N/A)0 .. 20,0000%00:00 (00:00)Yusuf Islam Seyhan, Samet AcarInspector Studios
472 Vivat Sloboda (2019) Nov 17, 2019 $0.99N/A (N/A)0 .. 20,0000%00:00 (00:00)Team VivatTeam Vivat
473 Synthwave FURY Feb 9, 2023 $2.99N/A (N/A)0 .. 20,0000%00:00 (00:00)New England InteractiveNew England Interactive
474 Dropoff Dealer Feb 8, 2023 $4.99N/A (N/A)0 .. 20,0000%00:00 (00:00)Bundem GamesBundem Games
475 怪盗探偵ブロンドレディ Feb 8, 2023 $3.99N/A (N/A)0 .. 20,0000%00:00 (00:00)幻想テクノロギア幻想テクノロギア
476 City Ambulance Car Driving Feb 7, 2023 $0.59N/A (N/A)0 .. 20,0000%00:00 (00:00)Yusuf Islam Seyhan, Samet AcarInspector Studios
477 Hill Climb Feb 6, 2023 $4.99N/A (N/A)0 .. 20,0000%00:00 (00:00)gtgamegtgame
478 F1 Crazy Stunts Feb 6, 2023 $19.99N/A (N/A)0 .. 20,0000%00:00 (00:00)Balti CalarasiHandMade Games
479 Drive Maker Feb 5, 2023 N/AN/A (N/A)0 .. 20,0000%00:00 (00:00)Mawnt GamesMawnt Games
480 Lawnmower Game: Find Trump Feb 3, 2023 $0.59N/A (N/A)0 .. 20,0000%00:00 (00:00)Tero Lunkka, Valkeala SoftwareTero Lunkka
481 Extreme Car Drift Simulator Feb 3, 2023 $0.59N/A (N/A)0 .. 20,0000%00:00 (00:00)Yusuf Islam Seyhan, Samet AcarInspector Studios
482 X-Racing Feb 3, 2023 $5.99N/A (N/A)0 .. 20,0000%00:00 (00:00)PRO PLAYA DEVPRO PLAYA DEV
483 Meet Ball Girls Feb 2, 2023 $1.39N/A (N/A)0 .. 20,0000%00:00 (00:00)BGirl GamesBGirl Games
484 Ultimate Flight Simulator Pro Feb 2, 2023 $0.99N/A (N/A)0 .. 20,0000%00:00 (00:00)Yusuf Islam Seyhan, Samet AcarInspector Studios
485 Old Bira´s Farm Jan 31, 2023 $0.69N/A (N/A)0 .. 20,0000%00:00 (00:00)Bira GamesBira Games
486 Stunts above Clouds Jan 31, 2023 $2.99N/A (N/A)0 .. 20,0000%00:00 (00:00)Balti CalarasiHandMade Games
487 Idle Drift Kings Jan 31, 2023 $2.99N/A (N/A)0 .. 20,0000%00:00 (00:00)MAYHAM GamesCryptoAndy
488 Truck Simulator Ultimate 3D Jan 30, 2023 $0.99N/A (N/A)0 .. 20,0000%00:00 (00:00)Yusuf Islam Seyhan, Samet AcarInspector Studios
489 FurBalls Racing Jan 30, 2023 $7.99N/A (N/A)50,000 .. 100,0000%00:00 (00:00)Michael MareschMichael Maresch
490 Square Life Jan 29, 2023 $1.99N/A (N/A)0 .. 20,0000%00:00 (00:00)MYKMYK
491 Break Everything - Park Jan 27, 2023 $19.99N/A (N/A)0 .. 20,0000%00:00 (00:00)HedeHede
492 Grappling Dash Jan 27, 2023 $9.99N/A (N/A)0 .. 20,0000%00:00 (00:00)EpiXR Games UGEpiXR Games UG
493 Eastern Europe Bus Sim Jan 27, 2023 $39.99N/A (N/A)0 .. 20,0000%00:00 (00:00)Atomic Fabrik, Cristian ManolachiAtomic Fabrik, Cristian Manolachi
494 DoDodge Jan 27, 2023 FreeN/A (N/A)0 .. 20,0000%00:00 (00:00)HIZUKIHIZUKI
495 Bus Simulator: Car Driving Jan 25, 2023 $0.59N/A (N/A)0 .. 20,0000%00:00 (00:00)Yusuf Islam Seyhan, Samet AcarInspector Studios
496 Eastern Europe Train Sim Jan 25, 2023 $44.99N/A (N/A)0 .. 20,0000%00:00 (00:00)Bruin Bear Games
497 Super Kids Racing : Mini Edition Jan 24, 2023 $9.99N/A (N/A)0 .. 20,0000%00:00 (00:00)Yash Future Tech Solutions Pvt LtdYash Future Tech Solutions Pvt Ltd
498 Car Parking 2 Jan 19, 2023 $4.99N/A (N/A)0 .. 20,0000%00:00 (00:00)Louie IncLouie Inc
499 Avoid The Rain 2 Jan 18, 2023 $0.99N/A (N/A)0 .. 20,0000%00:00 (00:00)黑之翅膀黑之翅膀
500 Epic Race: The Stadium Jan 17, 2023 $4.99N/A (N/A)0 .. 20,0000%00:00 (00:00)YembelYembel
501 Lawnmower Game: Ufo Chase Jan 15, 2023 $0.55N/A (N/A)0 .. 20,0000%00:00 (00:00)Tero Lunkka, Valkeala SoftwareValkeala Software, Tero Lunkka
502 Drift Stage Jan 13, 2023 $9.99N/A (N/A)0 .. 20,0000%00:00 (00:00)Super Systems SoftworksSuper Systems Softworks
503 Highway Speeder Jan 12, 2023 $5.99N/A (N/A)0 .. 20,0000%00:00 (00:00)Bundem GamesBundem Games
504 Car Racing Highway Driving Simulator, real parking driver sim speed traffic deluxe 2023 Jan 11, 2023 $0.55N/A (N/A)0 .. 20,0000%00:00 (00:00)Midnight GamesMidnight Games
505 Cars vs Train Jan 9, 2023 $44.99N/A (N/A)0 .. 20,0000%00:00 (00:00)方块游戏(CubeGame), Pleasant Rain Ltd, MapleDorm Games
506 One Giant Leap Jan 8, 2023 $3.99N/A (N/A)0 .. 20,0000%00:00 (00:00)Sylvan Studios LLCSylvan Studios LLC
507 Touge Shakai Jan 7, 2023 $14.99N/A (N/A)20,000 .. 50,0000%00:00 (00:00)Raiyon Studios Pte LtdRaiyon Studios Pte Ltd
508 Race in Desert Jan 6, 2023 $39.99N/A (N/A)0 .. 20,0000%00:00 (00:00)Midnight Games
509 Nash Racing: 70 seconds left Jan 5, 2023 $0.67N/A (N/A)0 .. 20,0000%00:00 (00:00)Tero Lunkka, Valkeala SoftwareValkeala Software
510 国产手机帝国-Mobile phone empire Jan 5, 2023 $3.99N/A (N/A)0 .. 20,0000%00:00 (00:00)文字TV, 文字TV文字模拟游戏TV
511 Road Trucker Jan 3, 2023 $1.09N/A (N/A)0 .. 20,0000%00:00 (00:00)Phoenixxx GamesPhoenixxx Games
512 Project Speed 2 Jan 3, 2023 $2.39N/A (N/A)0 .. 20,0000%00:00 (00:00)Smartly Gophered GamesSmartly Gophered Games
513 AutoSim 2 Dec 30, 2022 $9.99N/A (N/A)0 .. 20,0000%00:00 (00:00)JoeTowNetwork, Sevag HJoeTowNetwork
514 Miss LU Dec 29, 2022 $1.99N/A (N/A)0 .. 20,0000%00:00 (00:00)SKY Game Inc.SKY Game Inc.
515 MotorCubs RC Dec 29, 2022 $11.99N/A (N/A)0 .. 20,0000%00:00 (00:00)Draisey Digital LLCDraisey Digital LLC
516 Police Car Simulator Dec 29, 2022 $0.99N/A (N/A)0 .. 20,0000%00:00 (00:00)Yusuf Islam Seyhan, Samet AcarInspector Studios
517 The Hero with a Thousand Arms / 千手英雄 Jul 31, 2020 $4.99N/A (N/A)0 .. 20,0000%00:00 (00:00)BitcaBitca
518 City Metro Simulator Dec 23, 2022 $44.99N/A (N/A)0 .. 20,0000%00:00 (00:00)Buru SRODaniel Lochner
519 Skybox Dec 23, 2022 $1.99N/A (N/A)50,000 .. 100,0000%00:00 (00:00)MersonMerson
520 Simple Rally Dec 22, 2022 $5.99N/A (N/A)0 .. 20,0000%00:00 (00:00)Bundem GamesBundem Games
521 Runner Party Dec 22, 2022 $9.99N/A (N/A)0 .. 20,0000%00:00 (00:00)CreartstudioCreartstudio
522 OverDrift Festival Dec 21, 2022 $6.29N/A (N/A)0 .. 20,0000%00:00 (00:00)OverDrift CrewOverDrift Crew
523 Marble Ball Racing 2022 Dec 21, 2022 $14.99N/A (N/A)0 .. 20,0000%00:00 (00:00)cosinemancosineman
524 Corpse Box Racers Dec 20, 2022 $9.99N/A (N/A)0 .. 20,0000%00:00 (00:00)Kabi JedhagenAn Otter Team, Kabi Jedhagen
525 Rolling Rush Dec 19, 2022 $2.49N/A (N/A)0 .. 20,0000%00:00 (00:00)AltEvilAltEvil
526 VR Racing on Dinosaur Island Dec 16, 2022 $3.99N/A (N/A)0 .. 20,0000%00:00 (00:00)Thoth VR HealthThoth VR Health
527 TUMBLE Dec 16, 2022 $2.99N/A (N/A)0 .. 20,0000%00:00 (00:00)Ahsin MemonAhsin Memon
528 Eggcelerate! to the North Pole Dec 15, 2022 $9.99N/A (N/A)0 .. 20,0000%00:00 (00:00)Tim Beaudet, Tyre Bytes LLCTyre Bytes LLC
529 Down Fast VR Dec 14, 2022 $11.99N/A (N/A)0 .. 20,0000%00:00 (00:00)HomeBrewGamesHomeBrewGames
530 Fastraq Dec 13, 2022 $1.99N/A (N/A)0 .. 20,0000%00:00 (00:00)Rahul KhannaRahul Khanna
531 Crazy City Driving Dec 13, 2022 $7.49N/A (N/A)0 .. 20,0000%00:00 (00:00)Louie IncLouie Inc
532 What A Ball Dec 12, 2022 $0.99N/A (N/A)0 .. 20,0000%00:00 (00:00)Another Path StudiosMcJoako
533 Super Asqr Dec 12, 2022 $2.99N/A (N/A)20,000 .. 50,0000%00:00 (00:00)CreamativeCreamative
534 Ghost Bus Simulator Dec 9, 2022 $39.99N/A (N/A)0 .. 20,0000%00:00 (00:00)Chem DVChem DV
535 Petite Adventure Dec 9, 2022 $4.99N/A (N/A)0 .. 20,0000%00:00 (00:00)Petite GamesRatalaika Games S.L.
536 Turbo Sloths Dec 8, 2022 $19.99N/A (N/A)0 .. 20,0000%00:00 (00:00)RainStyle gamesRainStyle games
537 Kargo Dec 8, 2022 $4.99N/A (N/A)0 .. 20,0000%00:00 (00:00)LiberaByteLiberaByte
538 Hell Runner Dec 8, 2022 $5.99N/A (N/A)0 .. 20,0000%00:00 (00:00)Moonlight StudioMoonlight Studio
539 JellyCar Worlds Dec 8, 2022 $7.99N/A (N/A)20,000 .. 50,0000%00:00 (00:00)Walaber Entertainment LLCWalaber Entertainment LLC
540 World Racing 2 - Champion Edition Dec 8, 2022 $9.99N/A (N/A)0 .. 20,0000%00:00 (00:00)Synetic GmbHUniqueGames Publishing GmbH
541 My Life: Riding Stables 3 Dec 7, 2022 $14.99N/A (N/A)0 .. 20,0000%00:00 (00:00)Korion InteractiveMarkt+Technik Verlag GmbH
542 Jeeps Offroad Simulator Dec 4, 2022 $24.99N/A (N/A)0 .. 20,0000%00:00 (00:00)Balti CalarasiHandMade Games
543 Space Haste 2 Dec 2, 2022 $4.99N/A (N/A)0 .. 20,0000%00:00 (00:00)Dreams InteractiveStrategy First
544 Motorcycle Racing VR Dec 1, 2022 $7.99N/A (N/A)0 .. 20,0000%00:00 (00:00)Mr Torrance GamesMr Torrance Games
545 Earl's Minecart Adventures Dec 1, 2022 FreeN/A (N/A)0 .. 20,0000%00:00 (00:00)TreeNutsGamesTreeNutsGames
546 Mike's Arcade Dec 1, 2022 $7.99N/A (N/A)0 .. 20,0000%00:00 (00:00)Mike SedoreMike Sedore
547 Need for Speed Unbound Dec 1, 2022 $69.99N/A (N/A)500,000 .. 1,000,00010.94%08:26 (10:16)Criterion GamesElectronic Arts
548 To the earth Dec 1, 2022 $0.99N/A (N/A)20,000 .. 50,0000%00:00 (00:00)HotdogdogHotdogdog
549 22 Racing Series | RTS-Racing Nov 30, 2022 $24.99N/A (N/A)0 .. 20,0000%00:00 (00:00)GOATi EntertainmentGOATi Entertainment
550 Nash Racing: Pursuit Nov 30, 2022 $0.67N/A (N/A)0 .. 20,0000%00:00 (00:00)Tero Lunkka, Valkeala Software, RaciebugValkeala Software
551 TypeOut Nov 30, 2022 $4.99N/A (N/A)0 .. 20,0000%00:00 (00:00)NovelKeys, LLC.NovelKeys, LLC.
552 Moto Offroad Simulator Nov 29, 2022 $44.99N/A (N/A)0 .. 20,0000%00:00 (00:00)Dora JoraTop Secret Studios LLC
553 Cruise Control Mode On! Nov 28, 2022 $2.99N/A (N/A)0 .. 20,0000%00:00 (00:00)Balti CalarasiHandMade Games
554 Shiny Ski Resort Nov 27, 2022 $8.99N/A (N/A)0 .. 20,0000%00:00 (00:00)Kairosoft Co.,LtdKairosoft Co.,Ltd
555 ROD Multiplayer Car Driving Nov 25, 2022 $0.99N/A (N/A)0 .. 20,0000%00:00 (00:00)Yusuf Islam Seyhan, Samet AcarInspector Studios
556 Moto Pizza Courier Nov 24, 2022 $39.99N/A (N/A)0 .. 20,0000%00:00 (00:00)Atomic Fabrik, Cristian ManolachiAtomic Fabrik, Cristian Manolachi
557 Rush Rally 3 Nov 24, 2022 $14.99N/A (N/A)0 .. 20,0000%00:00 (00:00)Brownmonster LimitedBrownmonster Limited
558 RXC - Rally Cross Challenge Nov 22, 2022 $19.99N/A (N/A)0 .. 20,0000%00:00 (00:00)Gigabit GamesGigabit Games
559 Power Driver Nov 21, 2022 $8.74N/A (N/A)0 .. 20,0000%00:00 (00:00)Youkunikazakovstudios  
560 Police Transporter Simulator Nov 20, 2022 $2.99N/A (N/A)0 .. 20,0000%00:00 (00:00)Balti CalarasiHandMade Games
561 Headz Go Racing Nov 19, 2022 $5.99N/A (N/A)0 .. 20,0000%00:00 (00:00)Arch GamingArch Gaming
562 PERCNOPS VIRTUAL RIG Nov 19, 2022 $29.99N/A (N/A)0 .. 20,0000%00:00 (00:00)PercnopsPercnops
563 Crazy Drift Nov 18, 2022 $9.99N/A (N/A)0 .. 20,0000%00:00 (00:00)Faisal AlhaddadFaisal Alhaddad
564 Lost Marbles Nov 18, 2022 $9.99N/A (N/A)0 .. 20,0000%00:00 (00:00)Cabbeast GamesCabbeast Games
565 Moto Trophy VR Nov 18, 2022 $7.99N/A (N/A)0 .. 20,0000%00:00 (00:00)EvvaconEvvacon
566 Europe Bus Driver Nov 18, 2022 $39.99N/A (N/A)0 .. 20,0000%00:00 (00:00)Archor Games
567 Car Parking Nov 17, 2022 $4.99N/A (N/A)0 .. 20,0000%00:00 (00:00)Louie IncLouie Inc
568 For Runner Night Nov 15, 2022 $0.99N/A (N/A)0 .. 20,0000%00:00 (00:00)Victor GuilhermeVictor Guilherme
569 Extermination Cars Stadium Nov 13, 2022 $2.99N/A (N/A)0 .. 20,0000%00:00 (00:00)Balti CalarasiHandMade Games
570 Duck Race Nov 12, 2022 $11.99N/A (N/A)0 .. 20,0000%00:00 (00:00)Ibzy StudiosIbzy Studios
571 Realms VR Nov 12, 2022 $0.99N/A (N/A)0 .. 20,0000%00:00 (00:00)Madman Games, RattlerCreedMadman Games
572 Speed Up Nov 11, 2022 $0.99N/A (N/A)0 .. 20,0000%00:00 (00:00)beans rollsbeans rolls
573 THE LAST SCAPE Nov 11, 2022 $6.99N/A (N/A)0 .. 20,0000%00:00 (00:00)Pablo Vidaurre SanzPablo Vidaurre Sanz
574 Stunts Contest Monster Car Nov 10, 2022 $0.89N/A (N/A)0 .. 20,0000%00:00 (00:00)Balti CalarasiHandMade Games
575 Bunny Hop : Eggstreme Nov 9, 2022 $2.99N/A (N/A)0 .. 20,0000%00:00 (00:00)Brézongue Inc.Hadod & Sufob Editions
576 Urban Night Battle Girl Nov 8, 2022 $1.99N/A (N/A)20,000 .. 50,0000%00:00 (00:00)OD GameOD Game
577 CHARGED: RC Racing Nov 8, 2022 $5.99N/A (N/A)0 .. 20,0000%00:00 (00:00)Game Development Alexander LamersGame Development Alexander Lamers
578 MotoX Nov 7, 2022 $7.99N/A (N/A)0 .. 20,0000%00:00 (00:00)Enver StudioEnver Studio
579 Drive West Coast Nov 7, 2022 $2.99N/A (N/A)0 .. 20,0000%00:00 (00:00)Beethoven Street StudiosBeethoven Street Studios
580 Everest Truck Simulator Nov 6, 2022 $19.99N/A (N/A)0 .. 20,0000%00:00 (00:00)Balti CalarasiHandMade Games
581 Stunts Contest Extreme Cars Nov 6, 2022 $19.99N/A (N/A)0 .. 20,0000%00:00 (00:00)KuKo
582 VR Run Nov 5, 2022 $4.19N/A (N/A)0 .. 20,0000%00:00 (00:00)Elvio LujanElvio Lujan
583 Running Fable Nov 4, 2022 $7.99N/A (N/A)0 .. 20,0000%00:00 (00:00)Seashell StudioSeashell Studio
584 Fast or Dead VR Nov 4, 2022 $9.99N/A (N/A)0 .. 20,0000%00:00 (00:00)EvvaconEvvacon
585 Asian Cargo Sim Nov 4, 2022 $24.99N/A (N/A)0 .. 20,0000%00:00 (00:00)Atomic FabrikAtomic Fabrik
586 Angry Angus Nov 4, 2022 $2.99N/A (N/A)0 .. 20,0000%00:00 (00:00)Pepperoni ProductionsPepperoni Productions
587 world of motors 2 Nov 3, 2022 $15.99N/A (N/A)0 .. 20,0000%00:00 (00:00)d7md7m
588 WRC Generations – The FIA WRC Official Game Nov 3, 2022 $13.99N/A (N/A)100,000 .. 200,0000%00:00 (00:00)KT RacingNacon
589 Checkered Flag Nov 3, 2022 $4.99N/A (N/A)0 .. 20,0000%00:00 (00:00)AtariAtari, Pixel Games UK
590 Taxi Taxi Sim Nov 2, 2022 $2.99N/A (N/A)0 .. 20,0000%00:00 (00:00)Balti CalarasiHandMade Games
591 Danger Forever Nov 1, 2022 N/AN/A (N/A)20,000 .. 50,0000%00:00 (00:00)FireVector LLCMeridian4
592 Two Cars Stunts Edition Nov 1, 2022 $24.99N/A (N/A)0 .. 20,0000%00:00 (00:00)Dora GamesAtomic Fabrik, Cristian Manolachi
593 RX Racing 2022 Pro Nov 1, 2022 FreeN/A (N/A)0 .. 20,0000%00:00 (00:00)CaRacing StudioCaRacing Studio
594 Space Cheetah Hyper Runner Oct 31, 2022 $9.99N/A (N/A)0 .. 20,0000%00:00 (00:00)Matthew MilneMatthew Milne
595 Vacuum Pilot Oct 30, 2022 N/AN/A (N/A)50,000 .. 100,0000%00:00 (00:00)VacuumDev, JackerinoVacuumDev
596 Maximum Velocity Oct 28, 2022 $19.99N/A (N/A)200,000 .. 500,0000%00:00 (00:00)Unight LLCUnight LLC
597 Junkyard Fury 2 Oct 27, 2022 $9.99N/A (N/A)0 .. 20,0000%00:00 (00:00)Daniel HoodDhood Gaming
598 RealFlight Evolution Oct 27, 2022 $69.99N/A (N/A)20,000 .. 50,0000%00:00 (00:00)Horizon Hobby, LLCHorizon Hobby, LLC
599 City Construction Simulator Oct 27, 2022 $4.99N/A (N/A)0 .. 20,0000%00:00 (00:00)Atomic FabrikAtomic Fabrik
600 Lazerhawk Oct 25, 2022 $2.99N/A (N/A)0 .. 20,0000%00:00 (00:00)SDas studioSDas studio
601 Crocodile Transformator Oct 23, 2022 $29.99N/A (N/A)0 .. 20,0000%00:00 (00:00)EpiXR Games UG
602 Extreme Truck Stunts Oct 21, 2022 $24.99N/A (N/A)0 .. 20,0000%00:00 (00:00)Atomic Fabrik, Cristian ManolachiAtomic Fabrik, Cristian Manolachi
603 无路可退 Oct 20, 2022 $2.27N/A (N/A)0 .. 20,0000%00:00 (00:00)冬日熊熊BD Games
604 WHATEVER Oct 20, 2022 $6.99N/A (N/A)0 .. 20,0000%00:00 (00:00)Napas TorteekaNapas Torteeka
605 ボクらの消しゴム落とし 新学期 Oct 19, 2022 $3.99N/A (N/A)0 .. 20,0000%00:00 (00:00)SAT-BOXSAT-BOX
606 Blaze in Space: Beat a-Maze Oct 18, 2022 $5.99N/A (N/A)50,000 .. 100,0000%00:00 (00:00)Manufractal Studio, Viabo GamesViabo Games
607 Retrowave Rider Oct 18, 2022 $4.99N/A (N/A)0 .. 20,0000%00:00 (00:00)Starchaser GamesMeridian4
608 EXTREME BIKE X Oct 17, 2022 $9.99N/A (N/A)0 .. 20,0000%00:00 (00:00)SAT-BOXSAT-BOX
609 Supermarket Duck Dash Oct 17, 2022 $1.79N/A (N/A)0 .. 20,0000%00:00 (00:00)Galaeth GamesGalaeth Games
610 Gravity Chase Oct 14, 2022 $11.99N/A (N/A)0 .. 20,0000%00:00 (00:00)Repixel8Repixel8
611 Nickelodeon Kart Racers 3: Slime Speedway Oct 14, 2022 $49.99N/A (N/A)0 .. 20,0000%00:00 (00:00)Bamtang GamesGameMill Entertainment
612 RCPG Oct 13, 2022 $3.99N/A (N/A)0 .. 20,0000%00:00 (00:00)Gorillas CodeGorillas Code
613 Winter Games 2023 Oct 12, 2022 $19.99N/A (N/A)0 .. 20,0000%00:00 (00:00)Independent Arts Software GmbHWild River Games GmbH
614 Crazy Click Thursday Oct 11, 2022 $0.99N/A (N/A)0 .. 20,0000%00:00 (00:00)CCT gamesCCT games
615 2 Late 2 Evade Oct 11, 2022 $7.99N/A (N/A)0 .. 20,0000%00:00 (00:00)Erik Andrè ThürsamErik Andrè Thürsam
616 Stunts Contest Beach Edition Oct 10, 2022 $44.99N/A (N/A)0 .. 20,0000%00:00 (00:00)MoroPoroMoroPoro
617 Day of the Dino: Survival Oct 10, 2022 FreeN/A (N/A)100,000 .. 200,0000%00:00 (00:00)Disco EntertainmentDisco Entertainment
618 Grand Prix Story Oct 10, 2022 $8.99N/A (N/A)0 .. 20,0000%00:00 (00:00)Kairosoft Co.,LtdKairosoft Co.,Ltd
619 Blockpop Heroes Oct 10, 2022 $1.99N/A (N/A)0 .. 20,0000%00:00 (00:00)Deus MarmotaDeus Marmota
620 Stunts Contest Super Bike Oct 8, 2022 $39.99N/A (N/A)0 .. 20,0000%00:00 (00:00)Atomic Fabrik, Cristian ManolachiAtomic Fabrik, Cristian Manolachi
621 Nitro Racers Jan 1, 1997 $6.99N/A (N/A)0 .. 20,0000%00:00 (00:00)Torc InteractiveZiggurat
622 Virtual Sailor NG Oct 6, 2022 $39.99N/A (N/A)0 .. 20,0000%00:00 (00:00)Ilan PapiniIlan Papini
623 Stunt Legends Oct 6, 2022 $4.99N/A (N/A)0 .. 20,0000%00:00 (00:00)Tuning ManiaTuning Mania
624 DRIVE DRIFT X(ドライブドリフトX) Oct 5, 2022 $1.99N/A (N/A)0 .. 20,0000%00:00 (00:00)SAT-BOXSAT-BOX
625 Hunter A Hunter Oct 5, 2022 $2.99N/A (N/A)0 .. 20,0000%00:00 (00:00)Riz RagentRagent Sdn Bhd
626 Jelle's Marble League Oct 5, 2022 $11.99N/A (N/A)0 .. 20,0000%00:00 (00:00)Big Head Games Ltd.Big Head Games Ltd.
627 Crazy Edition of Stunts Oct 4, 2022 $0.99N/A (N/A)0 .. 20,0000%00:00 (00:00)Atomic Fabrik, Cristian ManolachiAtomic Fabrik, Cristian Manolachi
628 Dakar Desert Rally Oct 4, 2022 $29.99N/A (N/A)20,000 .. 50,0000%00:00 (00:00)Saber Porto Ltd.Saber Interactive
629 Tuning Champions Sep 30, 2022 N/AN/A (N/A)0 .. 20,0000%00:00 (00:00)GrogoxGamesGrogoxGames
630 PAW Patrol: Grand Prix Sep 30, 2022 $29.99N/A (N/A)0 .. 20,0000%00:00 (00:00)3DCloudsOutright Games Ltd.
631 Drift racing car Sep 29, 2022 $1.99N/A (N/A)100,000 .. 200,0000%00:00 (00:00)Musa CANDIRMusa CANDIR
632 Zombie Hunter Sep 29, 2022 $2.99N/A (N/A)0 .. 20,0000%00:00 (00:00)XF 7XF 7
633 Funtasia Sep 29, 2022 $14.99N/A (N/A)0 .. 20,0000%00:00 (00:00)Fantastico StudioFreedom Games
634 消耗阳寿 Sep 28, 2022 $0.99N/A (N/A)0 .. 20,0000%00:00 (00:00)电线杆工作室电线杆工作室
635 RC Dash Sep 27, 2022 $1.99N/A (N/A)0 .. 20,0000%00:00 (00:00)plyoungplyoung
636 AQRA Tenses [Learn English] Sep 27, 2022 FreeN/A (N/A)0 .. 20,0000%00:00 (00:00)Samer HammamiSamer Hammami
637 reflex runner Sep 26, 2022 $1.99N/A (N/A)0 .. 20,0000%00:00 (00:00)appereddaapperedda
638 Hovercraft Racing Sep 26, 2022 $9.99N/A (N/A)0 .. 20,0000%00:00 (00:00)Bryn TanchelBryn Tanchel
639 Pocket Stables Sep 25, 2022 $8.99N/A (N/A)0 .. 20,0000%00:00 (00:00)Kairosoft Co.,LtdKairosoft Co.,Ltd
640 Golfing in Aether Sep 23, 2022 $7.99N/A (N/A)0 .. 20,0000%00:00 (00:00)VetronVetron
641 The Pizza Courier Sep 23, 2022 $24.99N/A (N/A)0 .. 20,0000%00:00 (00:00)Atomic Fabrik, Cristian ManolachiAtomic Fabrik, Cristian Manolachi
642 Super Gosu Cars Sep 23, 2022 $3.99N/A (N/A)0 .. 20,0000%00:00 (00:00)Codeborn ABCodeborn AB
643 FLASHOUT 3 Sep 22, 2022 $19.99N/A (N/A)0 .. 20,0000%00:00 (00:00)Jujubee S.A.Jujubee S.A.
644 Squad 51 vs. the Flying Saucers Sep 21, 2022 $19.99N/A (N/A)20,000 .. 50,0000%00:00 (00:00)Loomiarts, Fehorama FilmesWhisperGames, Assemble Entertainment
645 Ball Boys Sep 21, 2022 $4.99N/A (N/A)0 .. 20,0000%00:00 (00:00)JazzAppsJazzApps
646 Fech The Ferret Sep 21, 2022 $24.99N/A (N/A)0 .. 20,0000%00:00 (00:00)aucritasaucritas
647 Live Cycling Manager 2022 (2023 Season Update) Sep 20, 2022 N/AN/A (N/A)0 .. 20,0000%00:00 (00:00)Xagu StudiosXagu Studios
648 Outrace Sep 20, 2022 $1.19N/A (N/A)0 .. 20,0000%00:00 (00:00)RetroBugRetroBug
649 Stellar Propeller Sep 16, 2022 $5.99N/A (N/A)0 .. 20,0000%00:00 (00:00)Andy WaterhouseAndy Waterhouse
650 Plan B - Goddess's cards Sep 16, 2022 $0.99N/A (N/A)0 .. 20,0000%00:00 (00:00)PP TecPP Tec
651 Blitz Roads Sep 16, 2022 $9.99N/A (N/A)0 .. 20,0000%00:00 (00:00)JJTW GamesJJTW Games
652 City Bus Driver Simulator Sep 15, 2022 $0.99N/A (N/A)0 .. 20,0000%00:00 (00:00)Atomic FabrikAtomic Fabrik
653 NeverSynth Sep 15, 2022 $0.89N/A (N/A)0 .. 20,0000%00:00 (00:00)Whale Rock GamesWhale Rock Games
654 SBK22 Sep 15, 2022 $39.99N/A (N/A)0 .. 20,0000%00:00 (00:00)Milestone S.r.l.Milestone S.r.l.
655 Food Truck Simulator Sep 14, 2022 $11.99N/A (N/A)20,000 .. 50,0000%00:00 (00:00)DRAGO entertainmentDRAGO entertainment, Movie Games S.A., HeartBeat Games
656 You Suck at Parking - Complete Edition Sep 14, 2022 $9.99N/A (N/A)50,000 .. 100,0000%00:00 (00:00)Happy VolcanoCurve Games
657 Project:Special Forces Sep 11, 2022 $0.99N/A (N/A)0 .. 20,0000%00:00 (00:00)A StudiosA Studios
658 Asian Truck Simulator Sep 9, 2022 $44.99N/A (N/A)0 .. 20,0000%00:00 (00:00)Atomic FabrikKnöpfle
659 Grocket Sep 9, 2022 $3.99N/A (N/A)0 .. 20,0000%00:00 (00:00)Noobedidoob, Elite90erNoobuddies
660 Noracam's Slider Challenge Sep 9, 2022 $1.99N/A (N/A)0 .. 20,0000%00:00 (00:00)Rusimitu GamesRusimitu Games
661 ALPHA BOX Sep 8, 2022 $19.99N/A (N/A)0 .. 20,0000%00:00 (00:00)new knight studionew knight studio
662 Demolition race Sep 8, 2022 $0.99N/A (N/A)0 .. 20,0000%00:00 (00:00)xFAIRxxFAIRx
663 TRAIL OUT Sep 7, 2022 $19.99N/A (N/A)50,000 .. 100,0000%00:00 (00:00)GOOD BOYSCrytivo
664 Autos Sep 6, 2022 $5.99N/A (N/A)0 .. 20,0000%00:00 (00:00)Leedo StudioLeedo Studio
665 Let's Park Backyard Edition Sep 5, 2022 $10.99N/A (N/A)0 .. 20,0000%00:00 (00:00)TITA StudiosTITA Studios
666 Lawnmower Game: Space Race Sep 5, 2022 $0.59N/A (N/A)0 .. 20,0000%00:00 (00:00)Tero Lunkka, Valkeala SoftwareTero Lunkka
667 Truck Rally Hyper Hardcore Sep 5, 2022 $0.99N/A (N/A)0 .. 20,0000%00:00 (00:00)AlekseyAlekseyN
668 Star Trust - 3D Shooter Game Sep 3, 2022 $0.49N/A (N/A)0 .. 20,0000%00:00 (00:00)Leonardo Olivieri Carvalho, Everton "Pék", Keegan SlaterJudah Lion Games
669 Police Radar Sep 2, 2022 $10.99N/A (N/A)0 .. 20,0000%00:00 (00:00)Atomic Fabrik, Cristian ManolachiAtomic Fabrik, Cristian Manolachi
670 Omega Pilot Sep 2, 2022 $14.99N/A (N/A)0 .. 20,0000%00:00 (00:00)XOCUSXOCUS
671 Drifting Kings Sep 1, 2022 $6.99N/A (N/A)0 .. 20,0000%00:00 (00:00)XtremeXtreme
672 Motocross: Chasing the Dream Aug 30, 2022 N/AN/A (N/A)0 .. 20,0000%00:00 (00:00)LCQ StudiosLCQ Studios
673 Cleaning The System Aug 30, 2022 $4.99N/A (N/A)0 .. 20,0000%00:00 (00:00)NasheikNasheik
674 Speed the Card Game Aug 29, 2022 FreeN/A (N/A)0 .. 20,0000%00:00 (00:00)JD Software LLCJD Software LLC
675 Race me now Aug 26, 2022 FreeN/A (N/A)0 .. 20,0000%00:00 (00:00)Werys LtdWerys Ltd
676 Space Route Aug 26, 2022 $24.99N/A (N/A)20,000 .. 50,0000%00:00 (00:00)Space R Studio, GamesforgamesSpace R Studio, Gamesforgames
677 Just Jump Aug 26, 2022 $6.99N/A (N/A)0 .. 20,0000%00:00 (00:00)BotTinyBotTiny
678 NHRA Championship Drag Racing: Speed For All Aug 26, 2022 $49.99N/A (N/A)0 .. 20,0000%00:00 (00:00)Team6 Game StudiosGameMill Entertainment
679 Car Wash Simulator Aug 26, 2022 $0.99N/A (N/A)0 .. 20,0000%00:00 (00:00)LoLGamesLoLGames
680 KILLRUN Aug 25, 2022 $4.99N/A (N/A)100,000 .. 200,0000%00:00 (00:00)BULKHEADBULKHEAD
681 PAC-MAN WORLD Re-PAC Aug 25, 2022 $29.99N/A (N/A)20,000 .. 50,0000%00:00 (00:00)NOW PRODUCTIONBandai Namco Entertainment
682 TurboMania Fog Racers Aug 25, 2022 $4.99N/A (N/A)0 .. 20,0000%00:00 (00:00)Carrramba GamesCarrramba Games
683 Mount Wingsuit 2 Aug 25, 2022 $14.99N/A (N/A)0 .. 20,0000%00:00 (00:00)Ninja Whale StudiosNinja Whale Studios
684 Ambulance Chauffeur Simulator Aug 25, 2022 $0.99N/A (N/A)0 .. 20,0000%00:00 (00:00)Atomic FabrikAtomic Fabrik
685 Hot Lap League: Deluxe Edition Aug 23, 2022 $14.99N/A (N/A)0 .. 20,0000%00:00 (00:00)Ultimate StudioUltimate Studio
686 Coins Collector Sport Car Aug 22, 2022 $44.99N/A (N/A)0 .. 20,0000%00:00 (00:00)Brain Pump
687 Office Racer Aug 22, 2022 $1.99N/A (N/A)0 .. 20,0000%00:00 (00:00)Ready To PlayReady To Play
688 Deathrun Guys Aug 22, 2022 $0.99N/A (N/A)0 .. 20,0000%00:00 (00:00)André Facchinetti, Evelyn FacchinettiBeonin Studios
689 A Clumsy Flight Aug 22, 2022 $4.99N/A (N/A)0 .. 20,0000%00:00 (00:00)Douwe BroekemaDouwe Broekema
690 Police Scanner Radio - Real Live Audio - Happening Now! Aug 19, 2022 $19.99N/A (N/A)0 .. 20,0000%00:00 (00:00)hxr0goldgames.io
691 RockSlide Aug 17, 2022 $1.99N/A (N/A)0 .. 20,0000%00:00 (00:00)PixelDolPixelDol
692 Neodash Aug 17, 2022 $15.99N/A (N/A)20,000 .. 50,0000%00:00 (00:00)Axan GrayAxan Gray
693 Déjà Drift Aug 15, 2022 $9.99N/A (N/A)0 .. 20,0000%00:00 (00:00)BAR InteractiveBAR Interactive
694 BombViking Aug 12, 2022 $0.3N/A (N/A)0 .. 20,0000%00:00 (00:00)JJGamesJJGames
695 Best Forklift Operator Aug 11, 2022 $19.99N/A (N/A)0 .. 20,0000%00:00 (00:00)SimmersivGamedust
696 Super Kenney Aug 11, 2022 $1.99N/A (N/A)0 .. 20,0000%00:00 (00:00)hwg独立游戏hwg独立游戏
697 Limousine Parking Simulator Aug 10, 2022 $0.99N/A (N/A)0 .. 20,0000%00:00 (00:00)LoLGamesLoLGames
698 Fly Fly Tuk Tuk Aug 8, 2022 $199.99N/A (N/A)0 .. 20,0000%00:00 (00:00)GamesforgamesGamesforgames
699 NEAVE 2 Aug 8, 2022 $2.99N/A (N/A)0 .. 20,0000%00:00 (00:00)Patrick SweeneyPatrick Sweeney
700 Bicycle Rider Simulator Aug 5, 2022 $3.99N/A (N/A)0 .. 20,0000%00:00 (00:00)DiamosDevDiamosDev
701 ToyCar Aug 4, 2022 $0.99N/A (N/A)0 .. 20,0000%00:00 (00:00)HadoukanenHadoukanen
702 Turbo Golf Racing Aug 4, 2022 $9.99N/A (N/A)20,000 .. 50,0000%00:00 (00:00)Hugecalf StudiosSecret Mode
703 Dino Drink Aug 4, 2022 $2.99N/A (N/A)0 .. 20,0000%00:00 (00:00)ByteMirageByteMirage
704 The Ball Flow - Nature and Light Aug 4, 2022 $4.99N/A (N/A)0 .. 20,0000%00:00 (00:00)Morning Bird StudioCDNMorning Bird Studio
705 NoAmmo Aug 4, 2022 $0.49N/A (N/A)0 .. 20,0000%00:00 (00:00)outcast digital media
706 Rush Rush Rally Reloaded Aug 3, 2022 $5.99N/A (N/A)0 .. 20,0000%00:00 (00:00)Senile TeamSenile Team
707 PTRL Stockcar Edition Aug 2, 2022 $7.99N/A (N/A)0 .. 20,0000%00:00 (00:00)CasualAcidGamesCasualAcidGames
708 Gummy Jump Aug 2, 2022 $0.99N/A (N/A)0 .. 20,0000%00:00 (00:00)The_Screaming_RoosterThe_Screaming_Rooster
709 Dash Shooters Aug 1, 2022 $4.99N/A (N/A)0 .. 20,0000%00:00 (00:00)Game BarrierGame Barrier
710 KAOS SurVival Aug 1, 2022 $9.99N/A (N/A)20,000 .. 50,0000%00:00 (00:00)Agostinho DiasShark3D Studio
711 Offroad Horizons: Arcade Rock Crawling Jul 29, 2022 $9.99N/A (N/A)0 .. 20,0000%00:00 (00:00)Grenoble Interactive, LLCGrenoble Interactive, LLC
712 Motorbike Video Puzzle Jul 29, 2022 $1.99N/A (N/A)0 .. 20,0000%00:00 (00:00)NoiArtsNoiArts
713 Truck Simulator in City Jul 29, 2022 $4.49N/A (N/A)0 .. 20,0000%00:00 (00:00)Soner Çakır, Iottech Bilişim Danışmanlık Limited ŞirketiIottech Bilişim Danışmanlık Limited Şirketi, Soner Çakır
714 Re-Volt Jul 29, 2022 $5.99N/A (N/A)50,000 .. 100,0000%00:00 (00:00)Acclaim Studios TeessideH2 Interactive Co., Ltd.
715 Yacht Mechanic Simulator Jul 28, 2022 $1.49N/A (N/A)20,000 .. 50,0000%00:00 (00:00)Punch Punk GamesImage Power S.A.
716 Road Draftsman Jul 27, 2022 $1.09N/A (N/A)0 .. 20,0000%00:00 (00:00)Phoenixxx GamesPhoenixxx Games
717 Drift King Jul 27, 2022 $9.99N/A (N/A)0 .. 20,0000%00:00 (00:00)Giorgi AbelashviliGiorgi Abelashvili
718 Jumping! Jul 27, 2022 $0.99N/A (N/A)0 .. 20,0000%00:00 (00:00)TitmiceTitmice
719 Bicycle Challenge - Wastelands Jul 26, 2022 $19.99N/A (N/A)0 .. 20,0000%00:00 (00:00)HedeHede
720 Nash Racing 3: Drifter Jul 26, 2022 $0.99N/A (N/A)0 .. 20,0000%00:00 (00:00)Valkeala Software, NTStudiosTero Lunkka
721 RaceLeague Jul 26, 2022 $24.99N/A (N/A)0 .. 20,0000%00:00 (00:00)Oversteer StudiosOversteer Studios
722 RC SIM 2022 Jul 25, 2022 N/AN/A (N/A)0 .. 20,0000%00:00 (00:00)MobileMojoMobileMojo
723 Police on Duty Jul 25, 2022 $3.99N/A (N/A)0 .. 20,0000%00:00 (00:00)TITA StudiosTITA Studios
724 Hyperwheel Overdrive Jul 20, 2022 $18.99N/A (N/A)0 .. 20,0000%00:00 (00:00)Neon EngineNeon Engine
725 Hold Controller Jul 19, 2022 $3.6N/A (N/A)0 .. 20,0000%00:00 (00:00)InkofCakeInkofCake
726 Crazy Traffic Racer Jul 19, 2022 $1.99N/A (N/A)0 .. 20,0000%00:00 (00:00)LiluGamesLiluGames
727 CrashCourse Jul 19, 2022 $4.99N/A (N/A)0 .. 20,0000%00:00 (00:00)Flgaming, Fareed BhagwansinghFareed Bhagwansingh
728 KELVIN Jul 18, 2022 $7.99N/A (N/A)20,000 .. 50,0000%00:00 (00:00)Tim KashaniFireapples
729 Mountain Offroad Simulator Jul 18, 2022 $29.99N/A (N/A)0 .. 20,0000%00:00 (00:00)Atomic Fabrik, Cristian ManolachiAtomic Fabrik, Cristian Manolachi
730 Kanjozoku Game レーサー Online Street Racing & Drift Jul 16, 2022 $2.49N/A (N/A)50,000 .. 100,0000%00:00 (00:00)SG DEVMidnight Games
731 Never BreakUp Jul 15, 2022 $8.99N/A (N/A)20,000 .. 50,0000%00:00 (00:00)ISVR北京互联星梦科技有限公司凤凰游戏
732 The Deep Diving of FloodDragon Jul 15, 2022 $8.99N/A (N/A)0 .. 20,0000%00:00 (00:00)RayLink StudioRayLink Studio
733 Music Racer 2000 Jul 15, 2022 $0.75N/A (N/A)0 .. 20,0000%00:00 (00:00)AbstractArtAbstractArt
734 Pinball Girlfriend Jul 15, 2022 $0.99N/A (N/A)0 .. 20,0000%00:00 (00:00)PGA GamesPGA Games
735 Stunts Contest Police Car Jul 15, 2022 $0.99N/A (N/A)0 .. 20,0000%00:00 (00:00)Conglomerate 5Conglomerate 5
736 Spermination: Cream of the Crop Jul 15, 2022 $2.99N/A (N/A)0 .. 20,0000%00:00 (00:00)Phr00t's SoftwarePhr00t's Software
737 Ballex²: The Hanging Gardens Jul 15, 2022 $14.99N/A (N/A)0 .. 20,0000%00:00 (00:00)Mushreb GamesMushreb Games
738 Kayak VR: Mirage Jul 12, 2022 $14.94N/A (N/A)20,000 .. 50,0000%00:00 (00:00)Better Than LifeBetter Than Life
739 Fore Score Jul 12, 2022 $7.99N/A (N/A)0 .. 20,0000%00:00 (00:00)Rudiment GamesRudiment Games
740 All To Race Jul 11, 2022 $2.99N/A (N/A)0 .. 20,0000%00:00 (00:00)CharlieGamesCharlieGames
741 Crazy Wheels Jul 11, 2022 $14.99N/A (N/A)20,000 .. 50,0000%00:00 (00:00)Kymera GamesKymera Games
742 EQDRIVE.IO Jul 7, 2022 $14.99N/A (N/A)0 .. 20,0000%00:00 (00:00)Realityocean GamesRealityocean Games
743 Running Over Zombies Jul 6, 2022 $2.99N/A (N/A)0 .. 20,0000%00:00 (00:00)The ZooThe Zoo
744 Fire Truck Simulator Jul 5, 2022 $99.99N/A (N/A)0 .. 20,0000%00:00 (00:00)KIG TeamSevufn
745 Aerofly FS 4 Flight Simulator Jul 4, 2022 $59.99N/A (N/A)50,000 .. 100,0000%00:00 (00:00)IPACSIPACS
746 Sycamore Jun 30, 2022 $5.99N/A (N/A)0 .. 20,0000%00:00 (00:00)[untitledDev][untitledDev]
747 TRYP FPV : The Drone Racer Simulator Jun 30, 2022 $16.99N/A (N/A)100,000 .. 200,0000%00:00 (00:00)UNDEAD BATTERYUNDEAD BATTERY
748 Clown For Speed Jun 29, 2022 $0.99N/A (N/A)0 .. 20,0000%00:00 (00:00)RIVERSIDE SPORTSRIVERSIDE SPORTS
749 Horrid Henry's Krazy Karts Jun 29, 2022 $9.99N/A (N/A)0 .. 20,0000%00:00 (00:00)Mobile Pie LtdP2 Entertainment Ltd
750 Birb Race Jun 29, 2022 $1.99N/A (N/A)0 .. 20,0000%00:00 (00:00)Zankey StudioZankey Studio
751 Youmandriver Jun 28, 2022 $11.99N/A (N/A)0 .. 20,0000%00:00 (00:00)ChrisMat GamesChrisMat Games
752 MX vs ATV Legends Jun 28, 2022 $39.99N/A (N/A)20,000 .. 50,0000%00:00 (00:00)Rainbow StudiosTHQ Nordic
753 Epic Jump! Jun 26, 2022 $1.99N/A (N/A)20,000 .. 50,0000%00:00 (00:00)Sune H. W.Sune H. W.
754 Privateer Escape Jun 26, 2022 $3.99N/A (N/A)0 .. 20,0000%00:00 (00:00)Mobile Game StudioMobile Game Studio
755 Rocket Drift Jun 24, 2022 $1.99N/A (N/A)0 .. 20,0000%00:00 (00:00)WoolhigWoolhig
756 Fake Racing Jun 23, 2022 $9.99N/A (N/A)0 .. 20,0000%00:00 (00:00)Roman ShuvalovRoman Shuvalov
757 Outmode Jun 22, 2022 $7.99N/A (N/A)0 .. 20,0000%00:00 (00:00)RockateerRockateer
758 Motorcycle Travel Simulator Jun 18, 2022 N/AN/A (N/A)0 .. 20,0000%00:00 (00:00)Eternal Forge
759 R42 Jun 18, 2022 $17.99N/A (N/A)0 .. 20,0000%00:00 (00:00)Eternal ForgeEternal Forge
760 Hidden Industries Top-Down 3D Jun 18, 2022 $9.99N/A (N/A)0 .. 20,0000%00:00 (00:00)Top-Down GamesHede
761 Rocket Mania Jun 18, 2022 $4.99N/A (N/A)0 .. 20,0000%00:00 (00:00)BlindsidedGamesBlindsidedGames
762 Redout 2 Jun 16, 2022 $19.99N/A (N/A)50,000 .. 100,0000%00:00 (00:00)34BigThings srlSaber Interactive
763 Highway Driving Jun 16, 2022 $9.99N/A (N/A)0 .. 20,0000%00:00 (00:00)Yash Future Tech Solutions Pvt LtdYash Future Tech Solutions Pvt Ltd
764 Neodori Forever Jun 15, 2022 $9.99N/A (N/A)0 .. 20,0000%00:00 (00:00)StrobetanoCrescent Moon Games
765 Witch Epoch Jun 13, 2022 $24.99N/A (N/A)0 .. 20,0000%00:00 (00:00)Laush Dmitriy SergeevichLaush Studio
766 溪风谷之战(roguelike moba game) Jun 11, 2022 FreeN/A (N/A)0 .. 20,0000%00:00 (00:00)douzs.Studiodouzs.Studio
767 Pro Cycling Manager 2022 Jun 9, 2022 $7.99N/A (N/A)20,000 .. 50,00033.33%25:55 (08:38)Cyanide StudioNacon
768 Tour de France 2022 Jun 9, 2022 $7.99N/A (N/A)0 .. 20,0000%00:00 (00:00)Cyanide StudioNacon
769 SailSim Jun 8, 2022 $2.99N/A (N/A)0 .. 20,0000%00:00 (00:00)Demetris Rouslan ZavorotnitsienkoDemetris Rouslan Zavorotnitsienko
770 Speedway Challenge 2022 Jun 8, 2022 N/AN/A (N/A)0 .. 20,0000%00:00 (00:00)Artur Berkowski BerobasketArtur Berkowski Berobasket
771 C&T Jun 7, 2022 FreeN/A (N/A)0 .. 20,0000%00:00 (00:00)IthonyGamesIthonyGames
772 Joyride Jun 6, 2022 $3.99N/A (N/A)0 .. 20,0000%00:00 (00:00)Millwoo StudioJibeijia
773 Pickup One Jun 3, 2022 $19.99N/A (N/A)0 .. 20,0000%00:00 (00:00)seagull homePickup One
774 Click Lovers Jun 2, 2022 $0.99N/A (N/A)0 .. 20,0000%00:00 (00:00)CL GamesCL Arts
775 Cute Triplets Jun 2, 2022 $7.99N/A (N/A)0 .. 20,0000%00:00 (00:00)ModuwanquModuwanqu
776 Lawnmower game: Mortal Race Jun 1, 2022 $0.55N/A (N/A)0 .. 20,0000%00:00 (00:00)Tero Lunkka, Valkeala Software, BlackthugTero Lunkka
777 Dangerous Drift May 31, 2022 $14.99N/A (N/A)0 .. 20,0000%00:00 (00:00)LunarhellgamesLunarhellgames
778 Space Bees 太空蜜蜂 May 31, 2022 $1.99N/A (N/A)0 .. 20,0000%00:00 (00:00)re_kiAplusGames
779 HoverRider May 28, 2022 $9.99N/A (N/A)0 .. 20,0000%00:00 (00:00)SproutsVillageArtsWorks
780 zomboDRIVE: Apocalyptic Road Trip May 26, 2022 $9.99N/A (N/A)0 .. 20,0000%00:00 (00:00)zomboDRIVERS TeamzomboDRIVERS Team
781 Animals Transport Simulator May 26, 2022 $0.99N/A (N/A)0 .. 20,0000%00:00 (00:00)Conglomerate 5Conglomerate 5
782 BeachRun May 25, 2022 $24.99N/A (N/A)0 .. 20,0000%00:00 (00:00)GamesforgamesGamesforgames
783 Very Very Valet May 25, 2022 $14.99N/A (N/A)0 .. 20,0000%00:00 (00:00)Toyful LLCToyful LLC
784 Rumble Runners May 23, 2022 FreeN/A (N/A)20,000 .. 50,0000%00:00 (00:00)LunatincLunatinc
785 Night Racer May 23, 2022 $7.99N/A (N/A)0 .. 20,0000%00:00 (00:00)Smash Game StudiosSmash Game Studios
786 Hyperglide May 23, 2022 $2.99N/A (N/A)0 .. 20,0000%00:00 (00:00)Interaction Ideas GmbHInteraction Ideas GmbH
787 School Bus Driver Simulator May 21, 2022 $199.99N/A (N/A)0 .. 20,0000%00:00 (00:00)TITI StudiosTITI Studios
788 Tiny Arcade Racers May 20, 2022 $4.99N/A (N/A)0 .. 20,0000%00:00 (00:00)Dnasok GamesDnasok Games
789 The Endless Summer Surfing Challenge May 20, 2022 $7.99N/A (N/A)0 .. 20,0000%00:00 (00:00)E MarxBruce Brown Productions
790 Metal World: Street Scraps May 20, 2022 $0.49N/A (N/A)0 .. 20,0000%00:00 (00:00)Fake FoxFake Fox
791 AV-Racer May 20, 2022 $2.99N/A (N/A)0 .. 20,0000%00:00 (00:00)WassimulatorBlackbird Software
792 Hovercars 3077: Underground racing May 19, 2022 $0.79N/A (N/A)0 .. 20,0000%00:00 (00:00)Airem Motorsport Tech, AiremAirem
793 Barro GT May 19, 2022 $0.99N/A (N/A)20,000 .. 50,0000%00:00 (00:00)SC JogosSC Jogos
794 Golf Gang May 19, 2022 $2.99N/A (N/A)50,000 .. 100,0000%00:00 (00:00)Lazy Monday GamesCurve Games
795 GrumpyTunez May 18, 2022 FreeN/A (N/A)0 .. 20,0000%00:00 (00:00)Cranky Wizard Studios LLCCranky Wizard Studios LLC
796 BALLYGON May 18, 2022 $9.99N/A (N/A)0 .. 20,0000%00:00 (00:00)Anthony SeehaAnthony Seeha
797 Palmas May 18, 2022 $4.99N/A (N/A)0 .. 20,0000%00:00 (00:00)palmasandpazupalmasandpazu
798 Ultimate Obstacle Course - Prologue May 16, 2022 $2.99N/A (N/A)0 .. 20,0000%00:00 (00:00)Dark SlopeDark Slope
799 戦乙女 ikusaotome May 13, 2022 $9.99N/A (N/A)0 .. 20,0000%00:00 (00:00)Maets2011Maets2011
800 Jumping Horses Champions May 12, 2022 $2.99N/A (N/A)0 .. 20,0000%00:00 (00:00)BerkBox GamesBerkBox Games
801 Race to Kyiv May 12, 2022 FreeN/A (N/A)0 .. 20,0000%00:00 (00:00)Drogowit PomorskiDrogowit Pomorski
802 Fearless Rider May 11, 2022 $1.59N/A (N/A)0 .. 20,0000%00:00 (00:00)Real GamerReal Gamer
803 Put Your Brain On May 10, 2022 $0.99N/A (N/A)0 .. 20,0000%00:00 (00:00)AFabrikAFabrik
804 Shadow Life May 9, 2022 $2.99N/A (N/A)0 .. 20,0000%00:00 (00:00)Pirate Dog GamesPirate Dog Games
805 NEON SPEED May 7, 2022 $6.99N/A (N/A)0 .. 20,0000%00:00 (00:00)BanzaiProjectBanzaiProject
806 Retrowave May 6, 2022 $2.99N/A (N/A)200,000 .. 500,0001.47%00:18 (00:06)RewindAppRewindApp
807 Boating Simulator 2022 May 3, 2022 $19.99N/A (N/A)0 .. 20,0000%00:00 (00:00)Sebastian Mol, Yusuf Kenawy, Will Johnson, Kyle Norton, Arlen Barrett, Sam Carson, Martin Berman, Owen Griffiths, Euan AllisonGoEarth Ltd
808 Race! Make 'm finish... May 3, 2022 $1.99N/A (N/A)0 .. 20,0000%00:00 (00:00)Ruben van Aerde (Aerthe)Aerthe
809 Tuk Tuk Extreme Simulator May 2, 2022 $0.99N/A (N/A)0 .. 20,0000%00:00 (00:00)Cristian Manolachi, AtomicFabrikCristian Manolachi, Atomic Fabrik
810 Maze Workout - Western Lost Solo Car Racer May 2, 2022 $0.99N/A (N/A)0 .. 20,0000%00:00 (00:00)Hypothesys_indie_DevHypothesys
811 Quantum Apex Apr 29, 2022 $0.99N/A (N/A)0 .. 20,0000%00:00 (00:00)Red Ram GamesRed Ram Games
812 Super Turbo Racing Apr 29, 2022 $0.55N/A (N/A)0 .. 20,0000%00:00 (00:00)1001 Apps Studio1001 Apps Studio
813 Mickey Storm and the Cursed Mask Apr 29, 2022 $9.99N/A (N/A)0 .. 20,0000%00:00 (00:00)Triangle StudiosLion Castle Entertainment
814 Slide Stars Apr 29, 2022 $8.99N/A (N/A)0 .. 20,0000%00:00 (00:00)Triangle StudiosLion Castle Entertainment
815 HRD 3 Pegasus Island Apr 28, 2022 $19.99N/A (N/A)0 .. 20,0000%00:00 (00:00)Loot InsideLoot Inside
816 Turbo Sliders Unlimited Apr 27, 2022 $14.99N/A (N/A)50,000 .. 100,0000%00:00 (00:00)Antti MannistoAntti Mannisto
817 Barro F22 Apr 25, 2022 $0.99N/A (N/A)20,000 .. 50,0000%00:00 (00:00)SC JogosSC Jogos
818 Rose Action Apr 22, 2022 $4.99N/A (N/A)0 .. 20,0000%00:00 (00:00)Ma Ge GameMa Ge Game
819 MotoGP22 Apr 21, 2022 $39.99N/A (N/A)50,000 .. 100,0000%00:00 (00:00)Milestone S.r.l.Milestone S.r.l.
820 Eastern Europe Truck Simulator Apr 21, 2022 $0.49N/A (N/A)0 .. 20,0000%00:00 (00:00)Atomic Fabrik, Cristian ManolachiAtomic Fabrik, Cristian Manolachi
821 Retro Ride Apr 20, 2022 $9.99N/A (N/A)0 .. 20,0000%00:00 (00:00)Avaris AS, Inverse OntologyAvaris AS
822 Crazi Lift Apr 18, 2022 $3.99N/A (N/A)0 .. 20,0000%00:00 (00:00)Laboriontech StudioLaboriontech Studio
823 The Forgotten Isles Apr 16, 2022 $2.99N/A (N/A)0 .. 20,0000%00:00 (00:00)Phantom ProgrammingPhantom Programming
824 Stream Games Deluxe Apr 15, 2022 $2.99N/A (N/A)0 .. 20,0000%00:00 (00:00)MGSStudiosMGSStudios
825 Car Detailing Simulator Apr 13, 2022 $6.39N/A (N/A)20,000 .. 50,0000%00:00 (00:00)Games Incubator, GameFormatic S.A.Games Incubator, PlayWay S.A.
826 Rush Rally Origins Apr 13, 2022 $14.99N/A (N/A)0 .. 20,0000%00:00 (00:00)Brownmonster LimitedBrownmonster Limited
827 The Smash Cars Tournament Apr 11, 2022 $99.99N/A (N/A)0 .. 20,0000%00:00 (00:00)DoraGamesAtomic Fabrik, Cristian Manolachi
828 Airborne Motocross Apr 8, 2022 $5.99N/A (N/A)0 .. 20,0000%00:00 (00:00)KAMGAM e.U.KAMGAM e.U.
829 Tetris(俄罗斯方块收纳版) Apr 7, 2022 $7.99N/A (N/A)0 .. 20,0000%00:00 (00:00)Wu ZhangWu Zhang
830 Digitizer Apr 7, 2022 $14.99N/A (N/A)0 .. 20,0000%00:00 (00:00)Ilan ManorIlan Manor
831 DogFight Time Apr 5, 2022 $0.99N/A (N/A)20,000 .. 50,0000%00:00 (00:00)HabibiDevHabibiDev
832 Animal Rivals: Up In The Air Apr 4, 2022 $11.99N/A (N/A)0 .. 20,0000%00:00 (00:00)Beast Games S. A.Console Labs S.A.
833 Knightfall: A Daring Journey Apr 1, 2022 $5.99N/A (N/A)200,000 .. 500,0000%00:00 (00:00)LandfallLandfall
834 VR LightingClimbing Mar 31, 2022 $2.99N/A (N/A)0 .. 20,0000%00:00 (00:00)光驱游戏光驱游戏
835 Traction Control Mar 28, 2022 $4.99N/A (N/A)0 .. 20,0000%00:00 (00:00)Mitchell LawrenceMitchell Lawrence
836 Two Sedans Driving Simulator Mar 25, 2022 $0.99N/A (N/A)0 .. 20,0000%00:00 (00:00)Cristian Manolachi, Atomic FabrikCristian Manolachi, Atomic Fabrik
837 True Racing Mar 24, 2022 $0.99N/A (N/A)0 .. 20,0000%00:00 (00:00)BSO, BSABSO
838 Super Rolling Heroes Mar 23, 2022 N/AN/A (N/A)0 .. 20,0000%00:00 (00:00)Solid Neon GamesSolid Neon Games
839 X Fugitive Mar 22, 2022 $19.99N/A (N/A)0 .. 20,0000%00:00 (00:00)Little Fire StudioLittle Fire Studio
840 Supreme Race on Highway Mar 21, 2022 $199.99N/A (N/A)0 .. 20,0000%00:00 (00:00)TITA StudiosTITA Studios
841 RC Death Race: Multiplayer Mar 20, 2022 $2.99N/A (N/A)0 .. 20,0000%00:00 (00:00)Decebal Games StudioDecebal Games Studio
842 Jump Challenge! Mar 18, 2022 $2.99N/A (N/A)0 .. 20,0000%00:00 (00:00)Source Byte Sp. z o.o.Source Byte Sp. z o.o.
843 Biggest Stream Hover Racing Mar 18, 2022 FreeN/A (N/A)0 .. 20,0000%00:00 (00:00)BiggestWeedBiggest Streams
844 Monster Energy Supercross - The Official Videogame 5 Mar 17, 2022 $39.99N/A (N/A)0 .. 20,0000%00:00 (00:00)Milestone S.r.l.Milestone S.r.l.
845 Toasted! Mar 17, 2022 $8.99N/A (N/A)0 .. 20,0000%00:00 (00:00)Polygon Dust Entertainment Ltd.Polygon Dust Entertainment Ltd.
846 Seaside Driving Mar 16, 2022 $3.99N/A (N/A)20,000 .. 50,0000%00:00 (00:00)Frozen Lake GamesTendokore
847 Velocity Legends - Action Racing Game Mar 15, 2022 $4.99N/A (N/A)0 .. 20,0000%00:00 (00:00)UY StudiosUY Studios
848 Hirilun Mar 14, 2022 $9.99N/A (N/A)20,000 .. 50,0000%00:00 (00:00)Gone Mad StudiosMeridian4
849 Ball Pain Mar 14, 2022 $3.99N/A (N/A)0 .. 20,0000%00:00 (00:00)Farther GamerFarther Gamer Games
850 Neon Racer Mar 12, 2022 $1.99N/A (N/A)0 .. 20,0000%00:00 (00:00)Iful GS, Dynamic GamesIful GS, Dynamic Games
851 Wing Breakers Mar 11, 2022 $24.99N/A (N/A)0 .. 20,0000%00:00 (00:00)GugilaGugila
852 CRASH TEST IDIOT Mar 11, 2022 $0.99N/A (N/A)0 .. 20,0000%00:00 (00:00)Archor WrightArchor Games
853 Retro Kart Rush Mar 10, 2022 $2.99N/A (N/A)0 .. 20,0000%00:00 (00:00)kurigamedevkurigamedev
854 Grand Mountain Adventure: Wonderlands Mar 10, 2022 $19.99N/A (N/A)0 .. 20,0000%00:00 (00:00)Toppluva ABMicroids
855 Arena Drift Master Mar 9, 2022 $0.49N/A (N/A)0 .. 20,0000%00:00 (00:00)Biro PivoBiro Pivo
856 Zombie Crush Driver Mar 9, 2022 $2.99N/A (N/A)0 .. 20,0000%00:00 (00:00)ILXAM, Laush Dmitriy SergeevichLaush Studio
857 Buggy Game Mar 9, 2022 $2.99N/A (N/A)0 .. 20,0000%00:00 (00:00)Properly DecentProperly Decent
858 Phaseshift Mar 8, 2022 $12.99N/A (N/A)0 .. 20,0000%00:00 (00:00)Bubblehead Game DevBubblehead Game Dev
859 Quantum Velocity Mar 8, 2022 $9.99N/A (N/A)0 .. 20,0000%00:00 (00:00)Tavern EntertainmentTavern Entertainment
860 Cruise Ship Horse Racing Mar 8, 2022 $0.99N/A (N/A)0 .. 20,0000%00:00 (00:00)Racing For Home GamesRacing For Home Games
861 Offroad Truck Racing Mar 7, 2022 $2.99N/A (N/A)0 .. 20,0000%00:00 (00:00)Technologies&SimulatorsTechnologies&Simulators
862 Air Racing VR Mar 6, 2022 $8.99N/A (N/A)0 .. 20,0000%00:00 (00:00)UG Virtual Reality Technology Co.,Ltd.UG Virtual Reality Technology Co.,Ltd.
863 Commuter Mar 4, 2022 $1.99N/A (N/A)0 .. 20,0000%00:00 (00:00)Bad Neighbor GamesBad Neighbor Games
864 NeonHAT Mar 3, 2022 $6.24N/A (N/A)0 .. 20,0000%00:00 (00:00)Entalto StudiosEntalto Studios
865 Miami Sunset Drive Mar 2, 2022 $0.39N/A (N/A)0 .. 20,0000%00:00 (00:00)TurTechkhukhrovr
866 Skiing VR Mar 2, 2022 $5.39N/A (N/A)0 .. 20,0000%00:00 (00:00)DGMADGMA
867 Lost in Place Mar 1, 2022 $9.99N/A (N/A)0 .. 20,0000%00:00 (00:00)Bright Corners LLCBright Corners LLC
868 Race Condition Mar 1, 2022 FreeN/A (N/A)0 .. 20,0000%00:00 (00:00)Ravine ABRavine AB
869 Wrecked! Unfair Car Stunts Feb 28, 2022 $4.99N/A (N/A)0 .. 20,0000%00:00 (00:00)Johnny GinardJohnny Ginard
870 Race On Ice 2022 Pro Feb 28, 2022 FreeN/A (N/A)0 .. 20,0000%00:00 (00:00)CaRacing StudioCaRacing Studio
871 Deliver or Die! Feb 25, 2022 FreeN/A (N/A)0 .. 20,0000%00:00 (00:00)Barty GamesBarty Games
872 Jump Like An Egyptian Feb 25, 2022 $1.99N/A (N/A)0 .. 20,0000%00:00 (00:00)TamashiiTamashii
873 GRID Legends Feb 24, 2022 $59.99N/A (N/A)20,000 .. 50,0006.67%62:23 (20:47)CodemastersElectronic Arts
874 Run Away SkyDancer Feb 23, 2022 $0.69N/A (N/A)0 .. 20,0000%00:00 (00:00)Archor WrightArchor Games
875 The Pointless Car Chase: Refueled Feb 22, 2022 $0.59N/A (N/A)0 .. 20,0000%00:00 (00:00)R.E.M. Studios, NullReferenceExceptionR.E.M. Studios
876 Boat Simulator Apprentice Feb 21, 2022 $9.99N/A (N/A)0 .. 20,0000%00:00 (00:00)VSG LABSVSG LABS
877 Super Toy Cars Offroad Feb 18, 2022 $19.99N/A (N/A)0 .. 20,0000%00:00 (00:00)Eclipse GamesEclipse Games
878 HardWorker Simulator Feb 18, 2022 $0.99N/A (N/A)0 .. 20,0000%00:00 (00:00)LTZincLTZinc
879 Drag Battle Top Fuel Feb 17, 2022 $24.99N/A (N/A)0 .. 20,0000%00:00 (00:00)imaginalitygamesimaginalitygames
880 GoKart - NewMexico Feb 17, 2022 $1.99N/A (N/A)0 .. 20,0000%00:00 (00:00)Predrag LazicMobileTVGames
881 Off-Road Farming Feb 16, 2022 $9.99N/A (N/A)0 .. 20,0000%00:00 (00:00)EnoopsEnoops
882 World of Motors Feb 16, 2022 $11.99N/A (N/A)0 .. 20,0000%00:00 (00:00)d7md7m
883 Great Marble Adventure Feb 11, 2022 $9.99N/A (N/A)0 .. 20,0000%00:00 (00:00)NaCl586, Extra life EntertaimentNaCl586, Extra life Entertaiment
884 1000 Needles Feb 11, 2022 $0.99N/A (N/A)0 .. 20,0000%00:00 (00:00)LTZincLTZinc
885 休闲拼一拼 Feb 9, 2022 $0.99N/A (N/A)0 .. 20,0000%00:00 (00:00)超光兔工作室超光兔工作室
886 3D PUZZLE - Modern House Feb 9, 2022 $9.99N/A (N/A)20,000 .. 50,0000%00:00 (00:00)PUZZLE GamesHede
887 Crazy Cube Adventure Feb 8, 2022 $0.99N/A (N/A)0 .. 20,0000%00:00 (00:00)RedRosesSkullRedRosesSkull
888 Armchair Racer Feb 8, 2022 $1.99N/A (N/A)0 .. 20,0000%00:00 (00:00)Ojala GamesOjala Games
889 Bloon Rush Feb 4, 2022 $0.99N/A (N/A)0 .. 20,0000%00:00 (00:00)Bedrock Fungi GamesBedrock Fungi Games
890 Quest Of Graal Feb 4, 2022 $9.99N/A (N/A)0 .. 20,0000%00:00 (00:00)Pixel-Archipel, Théo MnPixel-Archipel
891 Coins Collector Simulator Feb 4, 2022 $0.99N/A (N/A)0 .. 20,0000%00:00 (00:00)Atomic FabrikAtomic Fabrik
892 Run Ninja Run Feb 1, 2022 $0.99N/A (N/A)0 .. 20,0000%00:00 (00:00)Kevin GargitterKevin Gargitter
893 MotorSim 3 Feb 1, 2022 $2.99N/A (N/A)0 .. 20,0000%00:00 (00:00)TheBrainSphereTheBrainSphere
894 Deadly Racing Duel Jan 31, 2022 $1.09N/A (N/A)100,000 .. 200,0000%00:00 (00:00)DDRACEkovalevviktor
895 Riding Seas Jan 31, 2022 $15.99N/A (N/A)0 .. 20,0000%00:00 (00:00)CatOnTree StudioCatOnTree Studio
896 Let's Ride! Silver Buckle Stables Jan 28, 2022 $4.99N/A (N/A)0 .. 20,0000%00:00 (00:00)Coresoft Inc.Cosmi Valusoft
897 RC Rush Jan 27, 2022 $12.99N/A (N/A)0 .. 20,0000%00:00 (00:00)Tea Monster Games, 4 Fun StudioTea Monster Games
898 DRAWER Jan 27, 2022 $3.99N/A (N/A)0 .. 20,0000%00:00 (00:00)npuKoJI team, Prikol TeamnpuKoJI team
899 Van Van Up! Jan 26, 2022 $0.99N/A (N/A)0 .. 20,0000%00:00 (00:00)Conglomerate 5
900 Racing Outlaws Jan 23, 2022 $0.99N/A (N/A)0 .. 20,0000%00:00 (00:00)Enaayah Software Development and Services Private LimitedEnaayah Software Development and Services Private Limited
901 Extreme Race Jan 21, 2022 $0.99N/A (N/A)0 .. 20,0000%00:00 (00:00)BeMenGoBeMenGo
902 Catch them! Jan 21, 2022 $0.99N/A (N/A)0 .. 20,0000%00:00 (00:00)LTZincLTZinc
903 Drop one NPC to another Jan 21, 2022 $0.99N/A (N/A)0 .. 20,0000%00:00 (00:00)Alright Peaches StudioAlright Peaches Studio
904 RetroDrift: Retrowave Online Road Jan 20, 2022 $0.99N/A (N/A)0 .. 20,0000%00:00 (00:00)PlatSTUDIOPlatSTUDIO
905 Downslope Jan 19, 2022 $4.99N/A (N/A)0 .. 20,0000%00:00 (00:00)Mind's Eye GamesMind's Eye Games
906 Race! Beauty! Bugs! Jan 18, 2022 $2.49N/A (N/A)0 .. 20,0000%00:00 (00:00)Piece Of VoxelPiece Of Voxel
907 The Zombie Smasher Jan 18, 2022 $0.99N/A (N/A)0 .. 20,0000%00:00 (00:00)Atomic Fabrik, Cristian ManolachiCristian Manolachi
908 Pocket Rocket Jan 16, 2022 $2.99N/A (N/A)0 .. 20,0000%00:00 (00:00)Jazzcat gamesJazzcat games
909 GearCity Jan 14, 2022 $19.99N/A (N/A)20,000 .. 50,0000%00:00 (00:00)Visual Entertainment And TechnologiesVisual Entertainment And Technologies
910 Xtreme Aces Racing Jan 13, 2022 $14.99N/A (N/A)0 .. 20,0000%00:00 (00:00)Under Control GamesUnder Control Games
911 Buck Up And Drive! Jan 10, 2022 $7.99N/A (N/A)50,000 .. 100,0000%00:00 (00:00)Fábio FontesFábio Fontes
912 Racingmaybe Jan 10, 2022 $9.99N/A (N/A)0 .. 20,0000%00:00 (00:00)JhoffisJhoffis
913 Climbey Jan 8, 2022 $7.99N/A (N/A)50,000 .. 100,0000%00:00 (00:00)Brian LindenhofShadowBrain Games
914 Car Parking Simulator VR Jan 7, 2022 $14.99N/A (N/A)0 .. 20,0000%00:00 (00:00)Sloppy StudiosSloppy Studios
915 Shiba Army Jan 6, 2022 $1.99N/A (N/A)0 .. 20,0000%00:00 (00:00)GabiVlgGabiVlg
916 Midnight Legends Jan 6, 2022 $1.99N/A (N/A)0 .. 20,0000%00:00 (00:00)Mihanikus GamesMihanikus Games
917 Zombies Killer Machine Jan 6, 2022 $39.99N/A (N/A)20,000 .. 50,0000%00:00 (00:00)Atomic FabrikAtomic Fabrik
918 PinballAdventure Jan 6, 2022 $3.99N/A (N/A)0 .. 20,0000%00:00 (00:00)张冰墨张冰墨
919 Police Hot Pursuit Jan 2, 2022 $0.99N/A (N/A)0 .. 20,0000%00:00 (00:00)Cristian Manolachi, Atomic FabrikAtomic Fabrik, Cristian Manolachi
920 Chinese Driving Test Simulator Dec 31, 2021 $0.99N/A (N/A)50,000 .. 100,0000%00:00 (00:00)LawlietLawliet
921 Rolling Balls Dec 31, 2021 $4.2N/A (N/A)0 .. 20,0000%00:00 (00:00)whiteboxwhitebox
922 RoboSquare Dec 31, 2021 FreeN/A (N/A)0 .. 20,0000%00:00 (00:00)FizzostiaFizzostia
923 Bouncy Bunnies Dec 30, 2021 $4.99N/A (N/A)0 .. 20,0000%00:00 (00:00)Eldstorm GamesEldstorm Games
924 HELL BOUND MONSTERS Dec 29, 2021 $1.99N/A (N/A)0 .. 20,0000%00:00 (00:00)Krisztian BlahaHAND UP DIGITAL LLC
925 Jet Fighters with Friends (Multiplayer) Dec 29, 2021 $0.99N/A (N/A)0 .. 20,0000%00:00 (00:00)Archor WrightArchor Games
926 RMB: Knowledge park - All World Dec 26, 2021 $9.99N/A (N/A)0 .. 20,0000%00:00 (00:00)RMB Games - Free learning games fo KidsRMB Games - Free learning games fo Kids
927 Drone Simulator Dec 22, 2021 $9.99N/A (N/A)0 .. 20,0000%00:00 (00:00)Ammonite Design Studios LtdAmmonite Design Studios Ltd
928 sunny-place Dec 21, 2021 $2.09N/A (N/A)0 .. 20,0000%00:00 (00:00)tjerntjern
929 Midnight Driver Dec 20, 2021 $3.99N/A (N/A)0 .. 20,0000%00:00 (00:00)Kawaru GamesKawaru Games
930 GP Bikes Dec 17, 2021 $24.99N/A (N/A)0 .. 20,0000%00:00 (00:00)PiBoSoPiBoSo
931 SimplePlanes VR Dec 17, 2021 $9.99N/A (N/A)0 .. 20,0000%00:00 (00:00)Jundroo, LLCJundroo, LLC
932 Motor Town: Behind The Wheel Dec 17, 2021 $19.99N/A (N/A)100,000 .. 200,0000%00:00 (00:00)P3 GamesP3 Games
933 Mon Bazou Dec 16, 2021 $15.99N/A (N/A)200,000 .. 500,0000%00:00 (00:00)Santa GoatSanta Goat
934 Speed 3: Grand Prix Dec 16, 2021 $11.99N/A (N/A)0 .. 20,0000%00:00 (00:00)BadBoys Game StudiosLion Castle Entertainment
935 Carnage Cross Dec 16, 2021 $4.99N/A (N/A)0 .. 20,0000%00:00 (00:00)Allen CaynAllen Cayn
936 IllusionCircle Dec 15, 2021 $0.99N/A (N/A)0 .. 20,0000%00:00 (00:00)cyycyy
937 Infinity Treasures Dec 15, 2021 $0.79N/A (N/A)0 .. 20,0000%00:00 (00:00)NerdbootBlue.Owl
938 Chibi Girl VS Evil Zombie Dead Dec 15, 2021 $1.99N/A (N/A)0 .. 20,0000%00:00 (00:00)Glue_BQGlue_BQ
939 Toy War - Cannon Dec 15, 2021 $9.99N/A (N/A)0 .. 20,0000%00:00 (00:00)HedeHede
940 Scrapland Remastered Dec 13, 2021 $19.99N/A (N/A)0 .. 20,0000%00:00 (00:00)MercurySteamMercury Steam Entertainment s.l.
941 Z-Race Mar 2, 2021 $14.99N/A (N/A)0 .. 20,0000%00:00 (00:00)XOCUSXOCUS
942 KEO Dec 9, 2021 $9.99N/A (N/A)0 .. 20,0000%00:00 (00:00)Redcatpig StudioRedcatpig Studio
943 Gear.Club Unlimited 2 - Ultimate Edition Dec 7, 2021 $6.99N/A (N/A)0 .. 20,0000%00:00 (00:00)Eden GamesMicroids
944 Dash Dash World Dec 6, 2021 $24.99N/A (N/A)0 .. 20,0000%00:00 (00:00)MOTIONX STUDIOMOTIONX STUDIO
945 Pizza Man Dec 5, 2021 $0.49N/A (N/A)0 .. 20,0000%00:00 (00:00)Artur RezendeArtur Rezende
946 TOUGE RACERS Dec 3, 2021 $14.99N/A (N/A)0 .. 20,0000%00:00 (00:00)Dolphin.AppDolphin.App
947 Underwater World Dec 3, 2021 $0.49N/A (N/A)0 .. 20,0000%00:00 (00:00)LTZincHandMade Games
948 Street Outlaws 2: Winner Takes All Dec 3, 2021 $49.99N/A (N/A)0 .. 20,0000%00:00 (00:00)Team6 Game StudiosGameMill Entertainment
949 Race On Ice 2020 Pro Dec 2, 2021 FreeN/A (N/A)0 .. 20,0000%00:00 (00:00)CaRacing StudioCaRacing Studio
950 Crazy Athletics - Summer Sports & Games Dec 2, 2021 $15.99N/A (N/A)0 .. 20,0000%00:00 (00:00)Crazysoft LimitedCrazysoft Limited
951 The Slaverian Trucker Dec 1, 2021 $11.99N/A (N/A)0 .. 20,0000%00:00 (00:00)BudaiBudai
952 Race for Your Life Dec 1, 2021 $1.19N/A (N/A)0 .. 20,0000%00:00 (00:00)DduXankovalevviktor
953 Mars parking simulator Dec 1, 2021 $0.99N/A (N/A)20,000 .. 50,0000%00:00 (00:00)VitokVitok
954 Liftoff: Micro Drones Nov 30, 2021 $15.99N/A (N/A)20,000 .. 50,0000%00:00 (00:00)LuGus StudiosLuGus Studios
955 MXGP 2021 - The Official Motocross Videogame Nov 30, 2021 $4.99N/A (N/A)20,000 .. 50,0000%00:00 (00:00)Milestone S.r.l.Milestone S.r.l.
956 Atomic Cyclecar Racing Nov 30, 2021 $9.99N/A (N/A)0 .. 20,0000%00:00 (00:00)PrimePrime
957 OverShoot Battle Race Nov 30, 2021 $9.99N/A (N/A)0 .. 20,0000%00:00 (00:00)OnlineObjectOnlineObject
958 Hot Roads Nov 26, 2021 $4.99N/A (N/A)0 .. 20,0000%00:00 (00:00)QuickBobberQuickBobber
959 Oval Racer Series - Sandbox Nov 19, 2021 $15.99N/A (N/A)0 .. 20,0000%00:00 (00:00)Oval GamesOval Games
960 Jump1000 Nov 19, 2021 $2.99N/A (N/A)0 .. 20,0000%00:00 (00:00)HizukiHizuki
961 Without Pain Nov 19, 2021 $0.49N/A (N/A)0 .. 20,0000%00:00 (00:00)LTZincHandMade Games
962 Jetpack Vacation Nov 18, 2021 $9.99N/A (N/A)0 .. 20,0000%00:00 (00:00)Tourism InfinityClique Games
963 Motorcycle Mechanic Simulator 2021 Nov 17, 2021 $6.99N/A (N/A)50,000 .. 100,0000%00:00 (00:00)Play2Chill S.A.PlayWay S.A., Play2Chill S.A.
964 THE SPRITE TRIALS Nov 16, 2021 FreeN/A (N/A)0 .. 20,0000%00:00 (00:00)CZ46CZ46
965 Splash Cars Nov 15, 2021 $4.99N/A (N/A)0 .. 20,0000%00:00 (00:00)Paper Bunker s.r.o.Paper Bunker s.r.o.
966 City Zoomer Nov 12, 2021 $4.99N/A (N/A)0 .. 20,0000%00:00 (00:00)planetrenoxplanetrenox
967 2021 Nov 11, 2021 $0.99N/A (N/A)20,000 .. 50,0000%00:00 (00:00)3000Studio3000Studio
968 Coolbit Nov 10, 2021 $0.99N/A (N/A)50,000 .. 100,0000%00:00 (00:00)JF Nova StudioJF Nova Studio
969 Frog Ball Rerolled Nov 9, 2021 $0.99N/A (N/A)0 .. 20,0000%00:00 (00:00)LarsonsoftLarsonsoft, Pix Arts
970 Forza Horizon 5 Nov 8, 2021 $59.99N/A (N/A)2,000,000 .. 5,000,00014.98%05:40 (02:38)Playground GamesXbox Game Studios
971 Zerone 2D Nov 8, 2021 N/AN/A (N/A)0 .. 20,0000%00:00 (00:00)Woven Clover LLCAevity LLC
972 Airplane Racer 2021 Nov 5, 2021 $1.99N/A (N/A)0 .. 20,0000%00:00 (00:00)Özgün BURSALIOĞLUÖzgün BURSALIOĞLU
973 Barro 22 Nov 5, 2021 $0.49N/A (N/A)20,000 .. 50,0000%00:00 (00:00)SC JogosSC Jogos
974 Fast & Furious: Spy Racers Rise of SH1FT3R Nov 5, 2021 $39.99N/A (N/A)0 .. 20,0000%00:00 (00:00)3DCloudsOutright Games Ltd.
975 80's Night Nov 5, 2021 $1.99N/A (N/A)0 .. 20,0000%00:00 (00:00)Iful GS, Dynamic GamesIful GS, Dynamic Games
976 Flåklypa Grand Prix Nov 4, 2021 $34.99N/A (N/A)20,000 .. 50,0000%00:00 (00:00)Ravn Studio, Rock Pocket Games, Invictus GamesRavn Studio
977 Hardcore: The Game Nov 4, 2021 $0.99N/A (N/A)0 .. 20,0000%00:00 (00:00)Franchi GamesFranchi Games
978 Winding Road Nov 3, 2021 $0.99N/A (N/A)20,000 .. 50,0000%00:00 (00:00)beans rollsbeans rolls
979 Midnight Ohota Nov 1, 2021 $0.99N/A (N/A)0 .. 20,0000%00:00 (00:00)the Bratansthe Bratans
980 Car Tuning Simulator Oct 29, 2021 $0.49N/A (N/A)0 .. 20,0000%00:00 (00:00)Boom GamesBoom Games
981 Airplanes Dogfight Racer Oct 28, 2021 $3.99N/A (N/A)0 .. 20,0000%00:00 (00:00)Pamir Khan, Khushal Khanlimitless games
982 NASCAR 21: Ignition Oct 27, 2021 $17.99N/A (N/A)20,000 .. 50,0000%00:00 (00:00)Motorsport GamesMotorsport Games
983 SnowRocket Oct 27, 2021 $4.99N/A (N/A)0 .. 20,0000%00:00 (00:00)Neokosmos TechnologiesNeokosmos Technologies
984 PolyBoost Oct 26, 2021 $4.99N/A (N/A)0 .. 20,0000%00:00 (00:00)Epic Byte StudiosEpic Byte Studios
985 #tacticalunderground arcade Oct 23, 2021 FreeN/A (N/A)0 .. 20,0000%00:00 (00:00)Pavel RepinRepin Develop
986 SRX Oct 23, 2021 $9.99N/A (N/A)0 .. 20,0000%00:00 (00:00)Arokma StudioArokma Studio
987 RAYZE Oct 22, 2021 $11.99N/A (N/A)0 .. 20,0000%00:00 (00:00)DreamSkillz, HyperstrangeHyperstrange
988 Speed Mazing Oct 21, 2021 FreeN/A (N/A)0 .. 20,0000%00:00 (00:00)Piotr Zurek, Łukasz LeszczukPiotr Zurek
989 Taxi Chaos Oct 19, 2021 $24.99N/A (N/A)0 .. 20,0000%00:00 (00:00)Team6 Game StudiosLion Castle Entertainment
990 N1L (No1Lives) Oct 16, 2021 FreeN/A (N/A)100,000 .. 200,0000%00:00 (00:00)Ken Henson, Tom MotzKen Henson, Tom Motz
991 Pathological Tires Oct 15, 2021 $7.99N/A (N/A)0 .. 20,0000%00:00 (00:00)Inclination GamesInclination Games
992 Crazy Truck Oct 14, 2021 $0.49N/A (N/A)0 .. 20,0000%00:00 (00:00)QuarlellleQuarlellle
993 Spacecraft speed Oct 13, 2021 $0.99N/A (N/A)0 .. 20,0000%00:00 (00:00)VitokVitok
994 Run Run Run Oct 12, 2021 $2.99N/A (N/A)0 .. 20,0000%00:00 (00:00)Games Dot ValueGames Dot Value
995 Galaxy's Extreme Oct 8, 2021 $9.99N/A (N/A)50,000 .. 100,0000%00:00 (00:00)Bianca Mello, Luciano MelloGolden Games
996 RCRacer VR Oct 8, 2021 $7.99N/A (N/A)0 .. 20,0000%00:00 (00:00)games.Sharbitgames.Sharbit
997 Street Racing: United Oct 8, 2021 $14.99N/A (N/A)0 .. 20,0000%00:00 (00:00)Technologies&SimulatorsTechnologies&Simulators
998 Torqued Up Legends Oct 8, 2021 $0.99N/A (N/A)0 .. 20,0000%00:00 (00:00)Project 172Project 172
999 Stumble Guys Oct 7, 2021 N/AN/A (N/A)2,000,000 .. 5,000,0002.83%00:24 (00:30)ScopelyScopely
1000 FiberTales: DummyKart Oct 6, 2021 $4.99N/A (N/A)0 .. 20,0000%00:00 (00:00)FiberTalesFiberTales
1001 LineVox 2: Forward to the Past Oct 5, 2021 $0.99N/A (N/A)50,000 .. 100,0000%00:00 (00:00)Piece Of VoxelPiece Of Voxel
1002 Lawnmower Game: Battle Oct 5, 2021 $0.55N/A (N/A)0 .. 20,0000%00:00 (00:00)Tero Lunkka, Valkeala Software, BlackthugTero Lunkka
1003 Mini Kart Racing Oct 2, 2021 $3.99N/A (N/A)0 .. 20,0000%00:00 (00:00)IronyDevIronyDev
1004 Gearshifters Oct 1, 2021 $24.99N/A (N/A)0 .. 20,0000%00:00 (00:00)Red Phantom GamesNumskull Games
1005 Blaze and the Monster Machines: Axle City Racers Oct 1, 2021 $39.99N/A (N/A)0 .. 20,0000%00:00 (00:00)3DCloudsOutright Games Ltd.
1006 City Air Battle Sep 30, 2021 $1.99N/A (N/A)0 .. 20,0000%00:00 (00:00)JS GAMEJS GAME
1007 HOT WHEELS UNLEASHED Sep 30, 2021 $39.99N/A (N/A)200,000 .. 500,0000%00:00 (00:00)Milestone S.r.l.Milestone S.r.l.
1008 Motorcycle Biker Simulator Sep 29, 2021 $3.99N/A (N/A)0 .. 20,0000%00:00 (00:00)MBPStudio22MBPStudio22
1009 RX Racing 2021 Pro Sep 27, 2021 FreeN/A (N/A)0 .. 20,0000%00:00 (00:00)CaRacing StudioCaRacing Studio
1010 sword story Dec 24, 2020 $6.99N/A (N/A)0 .. 20,0000%00:00 (00:00)likelike
1011 Me Vs You Sep 24, 2021 $15.99N/A (N/A)20,000 .. 50,0000%00:00 (00:00)Amped HorizonAmped Horizon
1012 Badlands Racer Sep 23, 2021 $1.99N/A (N/A)0 .. 20,0000%00:00 (00:00)beans rollsbeans rolls
1013 Traffic Chase Sep 21, 2021 $9.99N/A (N/A)0 .. 20,0000%00:00 (00:00)Digital MindDigital Mind
1014 Raising Torolith Sep 21, 2021 $2.99N/A (N/A)0 .. 20,0000%00:00 (00:00)ChochosanStudiosChochosanStudios
1015 My name is human Sep 17, 2021 $0.49N/A (N/A)0 .. 20,0000%00:00 (00:00)NL StudioConglomerate 5
1016 HAJWALA LINE Sep 17, 2021 $9.99N/A (N/A)0 .. 20,0000%00:00 (00:00)Hamza Ahmad Alheet, Thaer Jlal AhmadHamzaAlheet
1017 Speedway Challenge 2021 Sep 16, 2021 N/AN/A (N/A)0 .. 20,0000%00:00 (00:00)Artur Berkowski BerobasketArtur Berkowski Berobasket
1018 WRC 9 FIA World Rally Championship Sep 16, 2021 $5.99N/A (N/A)50,000 .. 100,0000%00:00 (00:00)KT RacingNacon
1019 PalmRide Sep 16, 2021 $3.99N/A (N/A)0 .. 20,0000%00:00 (00:00)PixelboisPixelbois
1020 SkateBIRD Sep 16, 2021 $4.99N/A (N/A)20,000 .. 50,0000%00:00 (00:00)Glass Bottom GamesGlass Bottom Games
1021 Dark Runner Sep 16, 2021 $3.24N/A (N/A)0 .. 20,0000%00:00 (00:00)Padani GamesPadani Games
1022 Virtual Surfing Sep 15, 2021 $7.49N/A (N/A)0 .. 20,0000%00:00 (00:00)WaveorWaveor
1023 Super Drag Race Sep 14, 2021 $0.57N/A (N/A)0 .. 20,0000%00:00 (00:00)Raciebug, Tero LunkkaTero Lunkka, Valkeala Software
1024 Bunch of Games Sep 13, 2021 $2.99N/A (N/A)0 .. 20,0000%00:00 (00:00)FrenzyFrenzy
1025 Crazy Derby Racing Sep 11, 2021 $0.49N/A (N/A)0 .. 20,0000%00:00 (00:00)DD RacingGigantum Games
1026 Parking light Sep 10, 2021 $0.99N/A (N/A)0 .. 20,0000%00:00 (00:00)VitokVitok
1027 Queen of Honor Sep 10, 2021 $0.49N/A (N/A)0 .. 20,0000%00:00 (00:00)NL StudioConglomerate 5
1028 HyperFleet Sep 10, 2021 $4.99N/A (N/A)0 .. 20,0000%00:00 (00:00)summetGamessummetGames
1029 Robosnow Sep 9, 2021 $0.99N/A (N/A)0 .. 20,0000%00:00 (00:00)VitokVitok
1030 Poly Racing Sep 7, 2021 $9.99N/A (N/A)0 .. 20,0000%00:00 (00:00)Shift Shaft StudiosShift Shaft Studios
1031 Marble Mage Sep 7, 2021 $2.99N/A (N/A)50,000 .. 100,0000%00:00 (00:00)Clay Dragon GamesClay Dragon Games
1032 Synthwave Burnout Sep 4, 2021 $9.99N/A (N/A)20,000 .. 50,0000%00:00 (00:00)Whale Rock GamesWhale Rock Games
1033 Virus ON Sep 3, 2021 $0.99N/A (N/A)0 .. 20,0000%00:00 (00:00)NL StudioConglomerate 5
1034 WRC 10 FIA World Rally Championship Sep 2, 2021 $12.49N/A (N/A)100,000 .. 200,0000%00:00 (00:00)KT RacingNacon
1035 Food Delivery Battle Sep 2, 2021 $3.99N/A (N/A)0 .. 20,0000%00:00 (00:00)STP WORKSSTP WORKS
1036 Super Woden GP Sep 1, 2021 $5.84N/A (N/A)50,000 .. 100,0000%00:00 (00:00)ViJuDaViJuDa
1037 Uncrashed : FPV Drone Simulator Sep 1, 2021 $14.99N/A (N/A)100,000 .. 200,00025%02:35 (01:17)Louis RochetteLouis Rochette
1038 OLD SKOOL RACER Aug 30, 2021 $29.99N/A (N/A)0 .. 20,0000%00:00 (00:00)Karma Play LimitedKarma Play Limited
1039 World CHAMPIONS: Decathlon Aug 30, 2021 $6.99N/A (N/A)0 .. 20,0000%00:00 (00:00)NowakGamesNowakGames
1040 Ragtag Racing Aug 27, 2021 $0.99N/A (N/A)50,000 .. 100,0000%00:00 (00:00)Vince VectorCredit 1 Studios, Haphazard Studios
1041 Zombie Killer Drift - Racing Survival Aug 27, 2021 $3.99N/A (N/A)20,000 .. 50,0000%00:00 (00:00)Bad Kids GamesAtomic Fabrik, Cristian Manolachi
1042 Little Dog Bob Aug 26, 2021 $4.99N/A (N/A)0 .. 20,0000%00:00 (00:00)Simon EltzSimon Eltz
Overview

Racing

Games with this tag: 1042
Average userscore: N/A%
Average metascore: 79.11%
Average playtime: 07:52
Total copies owned: 27,988,000
Average price: $11.09
Help

Owners: Estimated number of people owning this game. The number might be way too small for new releases and sometimes way too big for games that had free weekend event recently. Read more on About page.

Playtime: Average hours played in total per person that have actually launched this game since March 2009. This time is calculated for the whole lifetime, not for the particular year.

Average score: Average users and metacritic score for all games with this score assigned.

Average playtime: Average lifetime playtime for all games where this data is available.

Games in this genre: Self-explaining - number of games with this tag. Only inculdes games with sales data available.

Total copies owned: Refers to total copies of games with this tag acquired by users for the lifetime. Includes copies sold, downloaded for free and given out.

This number might be too small for recently released games or too big for games that had a free weekend in the last couple of months.

Graphs

Login required.

Please register or log in to see this information.

Login required.

Please register or log in to see this information.